<?xml version="1.0" encoding="UTF-8" standalone="no" ?>
<gpx xmlns="http://www.topografix.com/GPX/1/1" xmlns:xsi="http://www.w3.org/2001/XMLSchema-instance" xsi:schemaLocation="http://www.topografix.com/GPX/1/1 http://www.topografix.com/GPX/1/1/gpx.xsd" version="1.1" creator="VisuGPX - https://www.visugpx.com">
  <metadata>
    <name>Seyne St Pons Lachau St Vincen St Jean Chateau Monclar</name>
    <desc><![CDATA[Projet vers Seyne traversant St Jean ]]></desc>
  </metadata>
  <trk>
    <name><![CDATA[Seyne St Pons Lachau St Vincen St Jean Chateau Monclar]]></name>
    <trkseg>
      <trkpt lat="44.35246" lon="6.35685">
        <ele>1204.2578125</ele>
      </trkpt>
      <trkpt lat="44.35262" lon="6.35678">
        <ele>1206.7539063</ele>
      </trkpt>
      <trkpt lat="44.35276" lon="6.35672">
        <ele>1209.0859375</ele>
      </trkpt>
      <trkpt lat="44.35287" lon="6.35662">
        <ele>1211.0273438</ele>
      </trkpt>
      <trkpt lat="44.35303" lon="6.35662">
        <ele>1213.9375</ele>
      </trkpt>
      <trkpt lat="44.35316" lon="6.35655">
        <ele>1216.3632813</ele>
      </trkpt>
      <trkpt lat="44.35332" lon="6.35652">
        <ele>1219.2773438</ele>
      </trkpt>
      <trkpt lat="44.35349" lon="6.35649">
        <ele>1222.1875</ele>
      </trkpt>
      <trkpt lat="44.35357" lon="6.35655">
        <ele>1223.6445313</ele>
      </trkpt>
      <trkpt lat="44.35357" lon="6.35678">
        <ele>1224.0117188</ele>
      </trkpt>
      <trkpt lat="44.35346" lon="6.35695">
        <ele>1222.6601563</ele>
      </trkpt>
      <trkpt lat="44.35354" lon="6.35682">
        <ele>1223.6445313</ele>
      </trkpt>
      <trkpt lat="44.35365" lon="6.35672">
        <ele>1225.2304688</ele>
      </trkpt>
      <trkpt lat="44.3537" lon="6.35682">
        <ele>1226.5585938</ele>
      </trkpt>
      <trkpt lat="44.35373" lon="6.35705">
        <ele>1227.8710938</ele>
      </trkpt>
      <trkpt lat="44.35378" lon="6.35721">
        <ele>1229.4335938</ele>
      </trkpt>
      <trkpt lat="44.35389" lon="6.35734">
        <ele>1232.796875</ele>
      </trkpt>
      <trkpt lat="44.35403" lon="6.35734">
        <ele>1235.5234375</ele>
      </trkpt>
      <trkpt lat="44.35413" lon="6.35721">
        <ele>1236.9140625</ele>
      </trkpt>
      <trkpt lat="44.35421" lon="6.35705">
        <ele>1238.0664063</ele>
      </trkpt>
      <trkpt lat="44.35435" lon="6.35698">
        <ele>1240.7421875</ele>
      </trkpt>
      <trkpt lat="44.35438" lon="6.35698">
        <ele>1241.328125</ele>
      </trkpt>
      <trkpt lat="44.35443" lon="6.35682">
        <ele>1220.5310059</ele>
        <time>2016-06-07T10:07:33Z</time>
      </trkpt>
      <trkpt lat="44.35441" lon="6.35739">
        <ele>1223.4150391</ele>
        <time>2016-06-07T10:07:49Z</time>
      </trkpt>
      <trkpt lat="44.35441" lon="6.35776">
        <ele>1226.2988281</ele>
        <time>2016-06-07T10:07:59Z</time>
      </trkpt>
      <trkpt lat="44.35445" lon="6.35828">
        <ele>1229.6635742</ele>
        <time>2016-06-07T10:08:13Z</time>
      </trkpt>
      <trkpt lat="44.35434" lon="6.35875">
        <ele>1232.5476074</ele>
        <time>2016-06-07T10:08:27Z</time>
      </trkpt>
      <trkpt lat="44.35415" lon="6.35908">
        <ele>1235.4313965</ele>
        <time>2016-06-07T10:08:38Z</time>
      </trkpt>
      <trkpt lat="44.3539" lon="6.35945">
        <ele>1239.2766113</ele>
        <time>2016-06-07T10:08:52Z</time>
      </trkpt>
      <trkpt lat="44.3536" lon="6.35992">
        <ele>1242.6413574</ele>
        <time>2016-06-07T10:09:08Z</time>
      </trkpt>
      <trkpt lat="44.35352" lon="6.36033">
        <ele>1245.5253906</ele>
        <time>2016-06-07T10:09:19Z</time>
      </trkpt>
      <trkpt lat="44.35347" lon="6.36076">
        <ele>1248.8898926</ele>
        <time>2016-06-07T10:09:31Z</time>
      </trkpt>
      <trkpt lat="44.35341" lon="6.36118">
        <ele>1252.2543945</ele>
        <time>2016-06-07T10:09:43Z</time>
      </trkpt>
      <trkpt lat="44.35336" lon="6.36168">
        <ele>1256.0996094</ele>
        <time>2016-06-07T10:09:57Z</time>
      </trkpt>
      <trkpt lat="44.35334" lon="6.36211">
        <ele>1259.4643555</ele>
        <time>2016-06-07T10:10:11Z</time>
      </trkpt>
      <trkpt lat="44.35333" lon="6.36234">
        <ele>1260.9064941</ele>
        <time>2016-06-07T10:10:25Z</time>
      </trkpt>
      <trkpt lat="44.35332" lon="6.36234">
        <ele>1261.387207</ele>
        <time>2016-06-07T10:11:03Z</time>
      </trkpt>
      <trkpt lat="44.35333" lon="6.36235">
        <ele>1262.3483887</ele>
        <time>2016-06-07T10:12:35Z</time>
      </trkpt>
      <trkpt lat="44.35337" lon="6.36251">
        <ele>1263.3098145</ele>
        <time>2016-06-07T10:12:50Z</time>
      </trkpt>
      <trkpt lat="44.35359" lon="6.36301">
        <ele>1266.6743164</ele>
        <time>2016-06-07T10:13:06Z</time>
      </trkpt>
      <trkpt lat="44.3538" lon="6.3635">
        <ele>1269.5583496</ele>
        <time>2016-06-07T10:13:23Z</time>
      </trkpt>
      <trkpt lat="44.35408" lon="6.36386">
        <ele>1273.4035645</ele>
        <time>2016-06-07T10:13:37Z</time>
      </trkpt>
      <trkpt lat="44.3541" lon="6.36388">
        <ele>1273.4035645</ele>
        <time>2016-06-07T10:13:38Z</time>
      </trkpt>
      <trkpt lat="44.35442" lon="6.36409">
        <ele>1276.7683105</ele>
        <time>2016-06-07T10:13:51Z</time>
      </trkpt>
      <trkpt lat="44.35474" lon="6.36425">
        <ele>1279.6520996</ele>
        <time>2016-06-07T10:14:04Z</time>
      </trkpt>
      <trkpt lat="44.35501" lon="6.3643">
        <ele>1282.5361328</ele>
        <time>2016-06-07T10:14:15Z</time>
      </trkpt>
      <trkpt lat="44.35534" lon="6.36424">
        <ele>1285.9006348</ele>
        <time>2016-06-07T10:14:28Z</time>
      </trkpt>
      <trkpt lat="44.35567" lon="6.36431">
        <ele>1289.2651367</ele>
        <time>2016-06-07T10:14:41Z</time>
      </trkpt>
      <trkpt lat="44.35603" lon="6.36448">
        <ele>1292.1494141</ele>
        <time>2016-06-07T10:14:55Z</time>
      </trkpt>
      <trkpt lat="44.35636" lon="6.36461">
        <ele>1295.9946289</ele>
        <time>2016-06-07T10:15:09Z</time>
      </trkpt>
      <trkpt lat="44.35661" lon="6.36496">
        <ele>1298.878418</ele>
        <time>2016-06-07T10:15:23Z</time>
      </trkpt>
      <trkpt lat="44.35632" lon="6.36542">
        <ele>1300.3205566</ele>
        <time>2016-06-07T10:15:36Z</time>
      </trkpt>
      <trkpt lat="44.35588" lon="6.36569">
        <ele>1303.2043457</ele>
        <time>2016-06-07T10:15:51Z</time>
      </trkpt>
      <trkpt lat="44.35563" lon="6.36603">
        <ele>1306.0881348</ele>
        <time>2016-06-07T10:16:03Z</time>
      </trkpt>
      <trkpt lat="44.35554" lon="6.36657">
        <ele>1308.0112305</ele>
        <time>2016-06-07T10:16:15Z</time>
      </trkpt>
      <trkpt lat="44.35541" lon="6.36713">
        <ele>1310.8950195</ele>
        <time>2016-06-07T10:16:28Z</time>
      </trkpt>
      <trkpt lat="44.35523" lon="6.36752">
        <ele>1312.3369141</ele>
        <time>2016-06-07T10:16:38Z</time>
      </trkpt>
      <trkpt lat="44.35485" lon="6.36863">
        <ele>1312.817627</ele>
        <time>2016-06-07T10:16:59Z</time>
      </trkpt>
      <trkpt lat="44.35465" lon="6.36983">
        <ele>1312.817627</ele>
        <time>2016-06-07T10:17:19Z</time>
      </trkpt>
      <trkpt lat="44.35465" lon="6.36997">
        <ele>1312.3369141</ele>
        <time>2016-06-07T10:17:21Z</time>
      </trkpt>
      <trkpt lat="44.35458" lon="6.37024">
        <ele>1314.2595215</ele>
        <time>2016-06-07T10:17:26Z</time>
      </trkpt>
      <trkpt lat="44.35437" lon="6.37067">
        <ele>1317.6240234</ele>
        <time>2016-06-07T10:17:38Z</time>
      </trkpt>
      <trkpt lat="44.35402" lon="6.37152">
        <ele>1318.5854492</ele>
        <time>2016-06-07T10:17:56Z</time>
      </trkpt>
      <trkpt lat="44.35368" lon="6.37206">
        <ele>1318.5854492</ele>
        <time>2016-06-07T10:18:08Z</time>
      </trkpt>
      <trkpt lat="44.35352" lon="6.37238">
        <ele>1318.1047363</ele>
        <time>2016-06-07T10:18:13Z</time>
      </trkpt>
      <trkpt lat="44.35299" lon="6.37297">
        <ele>1320.5080566</ele>
        <time>2016-06-07T10:18:27Z</time>
      </trkpt>
      <trkpt lat="44.35239" lon="6.37367">
        <ele>1320.5080566</ele>
        <time>2016-06-07T10:18:44Z</time>
      </trkpt>
      <trkpt lat="44.35197" lon="6.37421">
        <ele>1322.911377</ele>
        <time>2016-06-07T10:18:58Z</time>
      </trkpt>
      <trkpt lat="44.35174" lon="6.37455">
        <ele>1325.7954102</ele>
        <time>2016-06-07T10:19:08Z</time>
      </trkpt>
      <trkpt lat="44.35148" lon="6.37493">
        <ele>1329.1599121</ele>
        <time>2016-06-07T10:19:21Z</time>
      </trkpt>
      <trkpt lat="44.35129" lon="6.37534">
        <ele>1328.6794434</ele>
        <time>2016-06-07T10:19:31Z</time>
      </trkpt>
      <trkpt lat="44.35106" lon="6.37555">
        <ele>1327.7180176</ele>
        <time>2016-06-07T10:19:37Z</time>
      </trkpt>
      <trkpt lat="44.35089" lon="6.37565">
        <ele>1328.1987305</ele>
        <time>2016-06-07T10:19:41Z</time>
      </trkpt>
      <trkpt lat="44.35071" lon="6.37586">
        <ele>1329.1599121</ele>
        <time>2016-06-07T10:19:46Z</time>
      </trkpt>
      <trkpt lat="44.35059" lon="6.37621">
        <ele>1330.1213379</ele>
        <time>2016-06-07T10:19:52Z</time>
      </trkpt>
      <trkpt lat="44.35046" lon="6.37731">
        <ele>1333.4858398</ele>
        <time>2016-06-07T10:20:10Z</time>
      </trkpt>
      <trkpt lat="44.35029" lon="6.37836">
        <ele>1332.5246582</ele>
        <time>2016-06-07T10:20:25Z</time>
      </trkpt>
      <trkpt lat="44.35028" lon="6.37858">
        <ele>1332.5246582</ele>
        <time>2016-06-07T10:20:28Z</time>
      </trkpt>
      <trkpt lat="44.35024" lon="6.37899">
        <ele>1334.4472656</ele>
        <time>2016-06-07T10:20:36Z</time>
      </trkpt>
      <trkpt lat="44.35015" lon="6.37952">
        <ele>1334.4472656</ele>
        <time>2016-06-07T10:20:48Z</time>
      </trkpt>
      <trkpt lat="44.35007" lon="6.37989">
        <ele>1336.8503418</ele>
        <time>2016-06-07T10:20:57Z</time>
      </trkpt>
      <trkpt lat="44.35005" lon="6.38007">
        <ele>1337.8117676</ele>
        <time>2016-06-07T10:21:01Z</time>
      </trkpt>
      <trkpt lat="44.35008" lon="6.38027">
        <ele>1340.215332</ele>
        <time>2016-06-07T10:21:06Z</time>
      </trkpt>
      <trkpt lat="44.35023" lon="6.38036">
        <ele>1342.1379395</ele>
        <time>2016-06-07T10:21:12Z</time>
      </trkpt>
      <trkpt lat="44.35029" lon="6.38035">
        <ele>1342.6186523</ele>
        <time>2016-06-07T10:21:15Z</time>
      </trkpt>
      <trkpt lat="44.35033" lon="6.3804">
        <ele>1343.0991211</ele>
        <time>2016-06-07T10:21:34Z</time>
      </trkpt>
      <trkpt lat="44.35027" lon="6.38035">
        <ele>1343.0991211</ele>
        <time>2016-06-07T10:21:50Z</time>
      </trkpt>
      <trkpt lat="44.35031" lon="6.38042">
        <ele>1343.0991211</ele>
        <time>2016-06-07T10:22:03Z</time>
      </trkpt>
      <trkpt lat="44.35036" lon="6.38049">
        <ele>1345.5024414</ele>
        <time>2016-06-07T10:22:17Z</time>
      </trkpt>
      <trkpt lat="44.3506" lon="6.38072">
        <ele>1345.9831543</ele>
        <time>2016-06-07T10:55:29Z</time>
      </trkpt>
      <trkpt lat="44.35046" lon="6.38062">
        <ele>1346.9443359</ele>
        <time>2016-06-07T10:55:34Z</time>
      </trkpt>
      <trkpt lat="44.35033" lon="6.38043">
        <ele>1346.4638672</ele>
        <time>2016-06-07T10:56:06Z</time>
      </trkpt>
      <trkpt lat="44.35026" lon="6.38047">
        <ele>1345.5024414</ele>
        <time>2016-06-07T10:56:29Z</time>
      </trkpt>
      <trkpt lat="44.35026" lon="6.38044">
        <ele>1349.3476563</ele>
        <time>2016-06-07T10:56:43Z</time>
      </trkpt>
      <trkpt lat="44.35026" lon="6.38044">
        <ele>1352.7121582</ele>
        <time>2016-06-07T10:56:54Z</time>
      </trkpt>
      <trkpt lat="44.35026" lon="6.38044">
        <ele>1352.7121582</ele>
        <time>2016-06-07T10:56:55Z</time>
      </trkpt>
      <trkpt lat="44.35026" lon="6.38043">
        <ele>1355.5961914</ele>
        <time>2016-06-07T10:57:20Z</time>
      </trkpt>
      <trkpt lat="44.35026" lon="6.38036">
        <ele>1355.1154785</ele>
        <time>2016-06-07T10:57:37Z</time>
      </trkpt>
      <trkpt lat="44.35028" lon="6.38032">
        <ele>1356.0769043</ele>
        <time>2016-06-07T10:58:00Z</time>
      </trkpt>
      <trkpt lat="44.35027" lon="6.38034">
        <ele>1355.5961914</ele>
        <time>2016-06-07T10:58:26Z</time>
      </trkpt>
      <trkpt lat="44.35029" lon="6.38036">
        <ele>1356.0769043</ele>
        <time>2016-06-07T10:59:05Z</time>
      </trkpt>
      <trkpt lat="44.35029" lon="6.38035">
        <ele>1356.5576172</ele>
        <time>2016-06-07T11:00:04Z</time>
      </trkpt>
      <trkpt lat="44.3503" lon="6.38037">
        <ele>1357.0383301</ele>
        <time>2016-06-07T11:00:53Z</time>
      </trkpt>
      <trkpt lat="44.35035" lon="6.38038">
        <ele>1357.519043</ele>
        <time>2016-06-07T11:01:05Z</time>
      </trkpt>
      <trkpt lat="44.35066" lon="6.38021">
        <ele>1357.9997559</ele>
        <time>2016-06-07T11:01:16Z</time>
      </trkpt>
      <trkpt lat="44.35099" lon="6.38003">
        <ele>1359.4416504</ele>
        <time>2016-06-07T11:01:28Z</time>
      </trkpt>
      <trkpt lat="44.35131" lon="6.38027">
        <ele>1361.8449707</ele>
        <time>2016-06-07T11:01:39Z</time>
      </trkpt>
      <trkpt lat="44.3517" lon="6.38044">
        <ele>1364.7287598</ele>
        <time>2016-06-07T11:01:53Z</time>
      </trkpt>
      <trkpt lat="44.35212" lon="6.3799">
        <ele>1367.6125488</ele>
        <time>2016-06-07T11:02:11Z</time>
      </trkpt>
      <trkpt lat="44.35222" lon="6.37995">
        <ele>1369.0546875</ele>
        <time>2016-06-07T11:02:15Z</time>
      </trkpt>
      <trkpt lat="44.35257" lon="6.38016">
        <ele>1372.4194336</ele>
        <time>2016-06-07T11:02:28Z</time>
      </trkpt>
      <trkpt lat="44.35291" lon="6.38029">
        <ele>1375.3032227</ele>
        <time>2016-06-07T11:02:40Z</time>
      </trkpt>
      <trkpt lat="44.35313" lon="6.38048">
        <ele>1378.6679688</ele>
        <time>2016-06-07T11:02:50Z</time>
      </trkpt>
      <trkpt lat="44.35329" lon="6.38082">
        <ele>1381.5517578</ele>
        <time>2016-06-07T11:03:02Z</time>
      </trkpt>
      <trkpt lat="44.35351" lon="6.38085">
        <ele>1384.9165039</ele>
        <time>2016-06-07T11:03:12Z</time>
      </trkpt>
      <trkpt lat="44.35368" lon="6.38069">
        <ele>1386.8388672</ele>
        <time>2016-06-07T11:03:20Z</time>
      </trkpt>
      <trkpt lat="44.35398" lon="6.38048">
        <ele>1390.2038574</ele>
        <time>2016-06-07T11:03:34Z</time>
      </trkpt>
      <trkpt lat="44.35403" lon="6.38049">
        <ele>1391.1650391</ele>
        <time>2016-06-07T11:03:36Z</time>
      </trkpt>
      <trkpt lat="44.35444" lon="6.38048">
        <ele>1394.0490723</ele>
        <time>2016-06-07T11:03:51Z</time>
      </trkpt>
      <trkpt lat="44.3548" lon="6.38049">
        <ele>1396.4523926</ele>
        <time>2016-06-07T11:04:03Z</time>
      </trkpt>
      <trkpt lat="44.35532" lon="6.38034">
        <ele>1398.8554688</ele>
        <time>2016-06-07T11:04:19Z</time>
      </trkpt>
      <trkpt lat="44.35571" lon="6.38029">
        <ele>1402.2199707</ele>
        <time>2016-06-07T11:04:32Z</time>
      </trkpt>
      <trkpt lat="44.35611" lon="6.38005">
        <ele>1405.5849609</ele>
        <time>2016-06-07T11:04:46Z</time>
      </trkpt>
      <trkpt lat="44.3566" lon="6.37977">
        <ele>1408.9494629</ele>
        <time>2016-06-07T11:05:03Z</time>
      </trkpt>
      <trkpt lat="44.35701" lon="6.37963">
        <ele>1411.8334961</ele>
        <time>2016-06-07T11:05:17Z</time>
      </trkpt>
      <trkpt lat="44.35756" lon="6.37957">
        <ele>1414.7172852</ele>
        <time>2016-06-07T11:05:35Z</time>
      </trkpt>
      <trkpt lat="44.3579" lon="6.37969">
        <ele>1417.6010742</ele>
        <time>2016-06-07T11:05:47Z</time>
      </trkpt>
      <trkpt lat="44.35817" lon="6.37983">
        <ele>1419.5239258</ele>
        <time>2016-06-07T11:05:58Z</time>
      </trkpt>
      <trkpt lat="44.35866" lon="6.38003">
        <ele>1422.8886719</ele>
        <time>2016-06-07T11:06:15Z</time>
      </trkpt>
      <trkpt lat="44.35917" lon="6.3802">
        <ele>1425.7724609</ele>
        <time>2016-06-07T11:06:33Z</time>
      </trkpt>
      <trkpt lat="44.35954" lon="6.38038">
        <ele>1429.1369629</ele>
        <time>2016-06-07T11:06:47Z</time>
      </trkpt>
      <trkpt lat="44.35968" lon="6.38043">
        <ele>1430.5791016</ele>
        <time>2016-06-07T11:06:53Z</time>
      </trkpt>
      <trkpt lat="44.36" lon="6.38063">
        <ele>1433.9436035</ele>
        <time>2016-06-07T11:07:05Z</time>
      </trkpt>
      <trkpt lat="44.36027" lon="6.38072">
        <ele>1436.8276367</ele>
        <time>2016-06-07T11:07:15Z</time>
      </trkpt>
      <trkpt lat="44.36056" lon="6.38079">
        <ele>1440.1923828</ele>
        <time>2016-06-07T11:07:26Z</time>
      </trkpt>
      <trkpt lat="44.36086" lon="6.38091">
        <ele>1442.5957031</ele>
        <time>2016-06-07T11:07:37Z</time>
      </trkpt>
      <trkpt lat="44.36118" lon="6.38109">
        <ele>1445.9602051</ele>
        <time>2016-06-07T11:07:49Z</time>
      </trkpt>
      <trkpt lat="44.36128" lon="6.38119">
        <ele>1447.4020996</ele>
        <time>2016-06-07T11:07:54Z</time>
      </trkpt>
      <trkpt lat="44.36136" lon="6.38131">
        <ele>1449.324707</ele>
        <time>2016-06-07T11:08:00Z</time>
      </trkpt>
      <trkpt lat="44.3614" lon="6.38136">
        <ele>1449.8054199</ele>
        <time>2016-06-07T11:08:02Z</time>
      </trkpt>
      <trkpt lat="44.3615" lon="6.3815">
        <ele>1451.7280273</ele>
        <time>2016-06-07T11:08:08Z</time>
      </trkpt>
      <trkpt lat="44.36159" lon="6.38163">
        <ele>1452.2087402</ele>
        <time>2016-06-07T11:08:12Z</time>
      </trkpt>
      <trkpt lat="44.3615" lon="6.38177">
        <ele>1455.5734863</ele>
        <time>2016-06-07T11:08:20Z</time>
      </trkpt>
      <trkpt lat="44.36125" lon="6.38192">
        <ele>1457.9768066</ele>
        <time>2016-06-07T11:08:31Z</time>
      </trkpt>
      <trkpt lat="44.36119" lon="6.38202">
        <ele>1459.4187012</ele>
        <time>2016-06-07T11:08:35Z</time>
      </trkpt>
      <trkpt lat="44.36103" lon="6.38245">
        <ele>1462.7832031</ele>
        <time>2016-06-07T11:08:47Z</time>
      </trkpt>
      <trkpt lat="44.36097" lon="6.38282">
        <ele>1466.1477051</ele>
        <time>2016-06-07T11:08:57Z</time>
      </trkpt>
      <trkpt lat="44.36099" lon="6.38284">
        <ele>1466.1477051</ele>
        <time>2016-06-07T11:08:58Z</time>
      </trkpt>
      <trkpt lat="44.36108" lon="6.38288">
        <ele>1467.1091309</ele>
        <time>2016-06-07T11:09:02Z</time>
      </trkpt>
      <trkpt lat="44.36115" lon="6.38284">
        <ele>1468.0705566</ele>
        <time>2016-06-07T11:09:05Z</time>
      </trkpt>
      <trkpt lat="44.36127" lon="6.38279">
        <ele>1469.5126953</ele>
        <time>2016-06-07T11:09:10Z</time>
      </trkpt>
      <trkpt lat="44.36132" lon="6.383">
        <ele>1471.4350586</ele>
        <time>2016-06-07T11:09:18Z</time>
      </trkpt>
      <trkpt lat="44.36133" lon="6.38312">
        <ele>1473.3579102</ele>
        <time>2016-06-07T11:09:21Z</time>
      </trkpt>
      <trkpt lat="44.36137" lon="6.38326">
        <ele>1474.3190918</ele>
        <time>2016-06-07T11:09:24Z</time>
      </trkpt>
      <trkpt lat="44.36156" lon="6.38327">
        <ele>1476.7224121</ele>
        <time>2016-06-07T11:09:32Z</time>
      </trkpt>
      <trkpt lat="44.36161" lon="6.38318">
        <ele>1477.203125</ele>
        <time>2016-06-07T11:09:35Z</time>
      </trkpt>
      <trkpt lat="44.36159" lon="6.38299">
        <ele>1478.1643066</ele>
        <time>2016-06-07T11:09:39Z</time>
      </trkpt>
      <trkpt lat="44.3616" lon="6.38275">
        <ele>1479.6062012</ele>
        <time>2016-06-07T11:09:45Z</time>
      </trkpt>
      <trkpt lat="44.3617" lon="6.38256">
        <ele>1481.0483398</ele>
        <time>2016-06-07T11:09:51Z</time>
      </trkpt>
      <trkpt lat="44.36202" lon="6.38258">
        <ele>1483.9321289</ele>
        <time>2016-06-07T11:10:02Z</time>
      </trkpt>
      <trkpt lat="44.36227" lon="6.38266">
        <ele>1486.8161621</ele>
        <time>2016-06-07T11:10:12Z</time>
      </trkpt>
      <trkpt lat="44.3625" lon="6.38278">
        <ele>1489.2194824</ele>
        <time>2016-06-07T11:10:21Z</time>
      </trkpt>
      <trkpt lat="44.36238" lon="6.38292">
        <ele>1490.661377</ele>
        <time>2016-06-07T11:10:28Z</time>
      </trkpt>
      <trkpt lat="44.36207" lon="6.38291">
        <ele>1491.6228027</ele>
        <time>2016-06-07T11:10:36Z</time>
      </trkpt>
      <trkpt lat="44.36197" lon="6.38315">
        <ele>1491.6228027</ele>
        <time>2016-06-07T11:10:42Z</time>
      </trkpt>
      <trkpt lat="44.36209" lon="6.38358">
        <ele>1494.5065918</ele>
        <time>2016-06-07T11:10:54Z</time>
      </trkpt>
      <trkpt lat="44.36215" lon="6.38364">
        <ele>1495.4680176</ele>
        <time>2016-06-07T11:10:56Z</time>
      </trkpt>
      <trkpt lat="44.36239" lon="6.38396">
        <ele>1498.8325195</ele>
        <time>2016-06-07T11:11:06Z</time>
      </trkpt>
      <trkpt lat="44.36253" lon="6.38431">
        <ele>1502.1972656</ele>
        <time>2016-06-07T11:11:15Z</time>
      </trkpt>
      <trkpt lat="44.36262" lon="6.3844">
        <ele>1503.1586914</ele>
        <time>2016-06-07T11:11:18Z</time>
      </trkpt>
      <trkpt lat="44.36269" lon="6.3842">
        <ele>1506.0424805</ele>
        <time>2016-06-07T11:11:26Z</time>
      </trkpt>
      <trkpt lat="44.36265" lon="6.38395">
        <ele>1508.4458008</ele>
        <time>2016-06-07T11:11:32Z</time>
      </trkpt>
      <trkpt lat="44.36274" lon="6.38378">
        <ele>1509.4072266</ele>
        <time>2016-06-07T11:11:37Z</time>
      </trkpt>
      <trkpt lat="44.3629" lon="6.38393">
        <ele>1511.329834</ele>
        <time>2016-06-07T11:11:44Z</time>
      </trkpt>
      <trkpt lat="44.36298" lon="6.38433">
        <ele>1515.1750488</ele>
        <time>2016-06-07T11:11:53Z</time>
      </trkpt>
      <trkpt lat="44.36299" lon="6.38437">
        <ele>1515.1750488</ele>
        <time>2016-06-07T11:11:54Z</time>
      </trkpt>
      <trkpt lat="44.36306" lon="6.3848">
        <ele>1518.059082</ele>
        <time>2016-06-07T11:12:04Z</time>
      </trkpt>
      <trkpt lat="44.36303" lon="6.38491">
        <ele>1519.5012207</ele>
        <time>2016-06-07T11:12:08Z</time>
      </trkpt>
      <trkpt lat="44.36314" lon="6.38516">
        <ele>1521.9042969</ele>
        <time>2016-06-07T11:12:15Z</time>
      </trkpt>
      <trkpt lat="44.36323" lon="6.38546">
        <ele>1524.7883301</ele>
        <time>2016-06-07T11:12:24Z</time>
      </trkpt>
      <trkpt lat="44.36308" lon="6.38565">
        <ele>1526.2302246</ele>
        <time>2016-06-07T11:12:31Z</time>
      </trkpt>
      <trkpt lat="44.36272" lon="6.38544">
        <ele>1529.5947266</ele>
        <time>2016-06-07T11:12:41Z</time>
      </trkpt>
      <trkpt lat="44.36245" lon="6.38533">
        <ele>1532.9594727</ele>
        <time>2016-06-07T11:12:50Z</time>
      </trkpt>
      <trkpt lat="44.36221" lon="6.38544">
        <ele>1535.8435059</ele>
        <time>2016-06-07T11:13:00Z</time>
      </trkpt>
      <trkpt lat="44.36199" lon="6.38565">
        <ele>1538.7275391</ele>
        <time>2016-06-07T11:13:07Z</time>
      </trkpt>
      <trkpt lat="44.36174" lon="6.38601">
        <ele>1541.6113281</ele>
        <time>2016-06-07T11:13:18Z</time>
      </trkpt>
      <trkpt lat="44.3616" lon="6.38614">
        <ele>1543.5339355</ele>
        <time>2016-06-07T11:13:24Z</time>
      </trkpt>
      <trkpt lat="44.36146" lon="6.38657">
        <ele>1547.3791504</ele>
        <time>2016-06-07T11:13:35Z</time>
      </trkpt>
      <trkpt lat="44.36142" lon="6.38671">
        <ele>1548.3405762</ele>
        <time>2016-06-07T11:13:39Z</time>
      </trkpt>
      <trkpt lat="44.36111" lon="6.38679">
        <ele>1551.2246094</ele>
        <time>2016-06-07T11:13:50Z</time>
      </trkpt>
      <trkpt lat="44.36078" lon="6.38705">
        <ele>1553.1472168</ele>
        <time>2016-06-07T11:14:00Z</time>
      </trkpt>
      <trkpt lat="44.36047" lon="6.38737">
        <ele>1554.1086426</ele>
        <time>2016-06-07T11:14:11Z</time>
      </trkpt>
      <trkpt lat="44.36048" lon="6.3874">
        <ele>1554.1086426</ele>
        <time>2016-06-07T11:14:32Z</time>
      </trkpt>
      <trkpt lat="44.36025" lon="6.38756">
        <ele>1555.5505371</ele>
        <time>2016-06-07T11:14:42Z</time>
      </trkpt>
      <trkpt lat="44.36001" lon="6.38781">
        <ele>1557.9538574</ele>
        <time>2016-06-07T11:14:50Z</time>
      </trkpt>
      <trkpt lat="44.35987" lon="6.38834">
        <ele>1561.3183594</ele>
        <time>2016-06-07T11:15:00Z</time>
      </trkpt>
      <trkpt lat="44.35978" lon="6.38868">
        <ele>1563.2409668</ele>
        <time>2016-06-07T11:15:08Z</time>
      </trkpt>
      <trkpt lat="44.35966" lon="6.38886">
        <ele>1565.1638184</ele>
        <time>2016-06-07T11:15:15Z</time>
      </trkpt>
      <trkpt lat="44.35957" lon="6.38909">
        <ele>1567.0864258</ele>
        <time>2016-06-07T11:15:20Z</time>
      </trkpt>
      <trkpt lat="44.35947" lon="6.38939">
        <ele>1569.4897461</ele>
        <time>2016-06-07T11:15:27Z</time>
      </trkpt>
      <trkpt lat="44.35919" lon="6.38964">
        <ele>1572.3735352</ele>
        <time>2016-06-07T11:15:37Z</time>
      </trkpt>
      <trkpt lat="44.35911" lon="6.38966">
        <ele>1573.8154297</ele>
        <time>2016-06-07T11:15:40Z</time>
      </trkpt>
      <trkpt lat="44.35903" lon="6.3899">
        <ele>1575.7380371</ele>
        <time>2016-06-07T11:15:45Z</time>
      </trkpt>
      <trkpt lat="44.35897" lon="6.39008">
        <ele>1577.1801758</ele>
        <time>2016-06-07T11:15:49Z</time>
      </trkpt>
      <trkpt lat="44.35882" lon="6.39034">
        <ele>1580.5449219</ele>
        <time>2016-06-07T11:15:56Z</time>
      </trkpt>
      <trkpt lat="44.35881" lon="6.39038">
        <ele>1580.5449219</ele>
        <time>2016-06-07T11:15:57Z</time>
      </trkpt>
      <trkpt lat="44.3586" lon="6.3905">
        <ele>1582.947998</ele>
        <time>2016-06-07T11:16:04Z</time>
      </trkpt>
      <trkpt lat="44.35854" lon="6.39054">
        <ele>1583.4287109</ele>
        <time>2016-06-07T11:16:06Z</time>
      </trkpt>
      <trkpt lat="44.35848" lon="6.39078">
        <ele>1585.3513184</ele>
        <time>2016-06-07T11:16:11Z</time>
      </trkpt>
      <trkpt lat="44.35853" lon="6.39097">
        <ele>1587.2739258</ele>
        <time>2016-06-07T11:16:18Z</time>
      </trkpt>
      <trkpt lat="44.35865" lon="6.39109">
        <ele>1588.2353516</ele>
        <time>2016-06-07T11:16:28Z</time>
      </trkpt>
      <trkpt lat="44.35869" lon="6.39106">
        <ele>1589.1965332</ele>
        <time>2016-06-07T11:16:47Z</time>
      </trkpt>
      <trkpt lat="44.35878" lon="6.39099">
        <ele>1589.1965332</ele>
        <time>2016-06-07T11:16:52Z</time>
      </trkpt>
      <trkpt lat="44.35913" lon="6.39088">
        <ele>1592.5612793</ele>
        <time>2016-06-07T11:17:04Z</time>
      </trkpt>
      <trkpt lat="44.35942" lon="6.39098">
        <ele>1596.4067383</ele>
        <time>2016-06-07T11:17:15Z</time>
      </trkpt>
      <trkpt lat="44.35968" lon="6.39106">
        <ele>1598.8098145</ele>
        <time>2016-06-07T11:17:25Z</time>
      </trkpt>
      <trkpt lat="44.36" lon="6.39104">
        <ele>1601.6938477</ele>
        <time>2016-06-07T11:17:36Z</time>
      </trkpt>
      <trkpt lat="44.36036" lon="6.39094">
        <ele>1605.5390625</ele>
        <time>2016-06-07T11:17:47Z</time>
      </trkpt>
      <trkpt lat="44.36064" lon="6.39093">
        <ele>1608.4228516</ele>
        <time>2016-06-07T11:17:56Z</time>
      </trkpt>
      <trkpt lat="44.36076" lon="6.39078">
        <ele>1610.345459</ele>
        <time>2016-06-07T11:18:02Z</time>
      </trkpt>
      <trkpt lat="44.3608" lon="6.39056">
        <ele>1612.7490234</ele>
        <time>2016-06-07T11:18:08Z</time>
      </trkpt>
      <trkpt lat="44.36084" lon="6.3904">
        <ele>1613.7102051</ele>
        <time>2016-06-07T11:18:12Z</time>
      </trkpt>
      <trkpt lat="44.36111" lon="6.39026">
        <ele>1617.0749512</ele>
        <time>2016-06-07T11:18:24Z</time>
      </trkpt>
      <trkpt lat="44.36141" lon="6.39035">
        <ele>1620.4394531</ele>
        <time>2016-06-07T11:18:35Z</time>
      </trkpt>
      <trkpt lat="44.36171" lon="6.39029">
        <ele>1623.8039551</ele>
        <time>2016-06-07T11:18:47Z</time>
      </trkpt>
      <trkpt lat="44.36187" lon="6.39022">
        <ele>1625.7265625</ele>
        <time>2016-06-07T11:18:53Z</time>
      </trkpt>
      <trkpt lat="44.36213" lon="6.39031">
        <ele>1628.6108398</ele>
        <time>2016-06-07T11:19:03Z</time>
      </trkpt>
      <trkpt lat="44.36224" lon="6.39041">
        <ele>1630.0527344</ele>
        <time>2016-06-07T11:19:09Z</time>
      </trkpt>
      <trkpt lat="44.36226" lon="6.39048">
        <ele>1630.5334473</ele>
        <time>2016-06-07T11:19:11Z</time>
      </trkpt>
      <trkpt lat="44.36263" lon="6.39079">
        <ele>1634.3786621</ele>
        <time>2016-06-07T11:19:26Z</time>
      </trkpt>
      <trkpt lat="44.36284" lon="6.39098">
        <ele>1637.2624512</ele>
        <time>2016-06-07T11:19:35Z</time>
      </trkpt>
      <trkpt lat="44.36307" lon="6.39118">
        <ele>1639.6657715</ele>
        <time>2016-06-07T11:19:46Z</time>
      </trkpt>
      <trkpt lat="44.3632" lon="6.39128">
        <ele>1641.5883789</ele>
        <time>2016-06-07T11:19:51Z</time>
      </trkpt>
      <trkpt lat="44.36348" lon="6.39156">
        <ele>1644.4724121</ele>
        <time>2016-06-07T11:20:04Z</time>
      </trkpt>
      <trkpt lat="44.36352" lon="6.39161">
        <ele>1645.4338379</ele>
        <time>2016-06-07T11:20:07Z</time>
      </trkpt>
      <trkpt lat="44.36369" lon="6.39171">
        <ele>1647.8371582</ele>
        <time>2016-06-07T11:20:14Z</time>
      </trkpt>
      <trkpt lat="44.36371" lon="6.39173">
        <ele>1647.8371582</ele>
        <time>2016-06-07T11:20:15Z</time>
      </trkpt>
      <trkpt lat="44.36397" lon="6.39177">
        <ele>1650.2404785</ele>
        <time>2016-06-07T11:20:25Z</time>
      </trkpt>
      <trkpt lat="44.36416" lon="6.39177">
        <ele>1653.1242676</ele>
        <time>2016-06-07T11:20:34Z</time>
      </trkpt>
      <trkpt lat="44.36424" lon="6.39182">
        <ele>1654.0856934</ele>
        <time>2016-06-07T11:20:38Z</time>
      </trkpt>
      <trkpt lat="44.36446" lon="6.39208">
        <ele>1657.4501953</ele>
        <time>2016-06-07T11:20:50Z</time>
      </trkpt>
      <trkpt lat="44.36448" lon="6.39211">
        <ele>1657.4501953</ele>
        <time>2016-06-07T11:20:51Z</time>
      </trkpt>
      <trkpt lat="44.36451" lon="6.3922">
        <ele>1658.411377</ele>
        <time>2016-06-07T11:20:55Z</time>
      </trkpt>
      <trkpt lat="44.3646" lon="6.3923">
        <ele>1659.8532715</ele>
        <time>2016-06-07T11:21:00Z</time>
      </trkpt>
      <trkpt lat="44.36473" lon="6.39226">
        <ele>1661.2956543</ele>
        <time>2016-06-07T11:21:06Z</time>
      </trkpt>
      <trkpt lat="44.36499" lon="6.39211">
        <ele>1664.1794434</ele>
        <time>2016-06-07T11:21:18Z</time>
      </trkpt>
      <trkpt lat="44.36511" lon="6.39223">
        <ele>1666.1020508</ele>
        <time>2016-06-07T11:21:24Z</time>
      </trkpt>
      <trkpt lat="44.3653" lon="6.39231">
        <ele>1668.986084</ele>
        <time>2016-06-07T11:21:35Z</time>
      </trkpt>
      <trkpt lat="44.36541" lon="6.39224">
        <ele>1670.4279785</ele>
        <time>2016-06-07T11:21:40Z</time>
      </trkpt>
      <trkpt lat="44.36545" lon="6.39224">
        <ele>1671.3891602</ele>
        <time>2016-06-07T11:21:42Z</time>
      </trkpt>
      <trkpt lat="44.36551" lon="6.3922">
        <ele>1671.3891602</ele>
        <time>2016-06-07T11:21:44Z</time>
      </trkpt>
      <trkpt lat="44.36559" lon="6.39221">
        <ele>1672.8312988</ele>
        <time>2016-06-07T11:21:48Z</time>
      </trkpt>
      <trkpt lat="44.36574" lon="6.39257">
        <ele>1675.7150879</ele>
        <time>2016-06-07T11:22:02Z</time>
      </trkpt>
      <trkpt lat="44.36576" lon="6.39266">
        <ele>1676.6767578</ele>
        <time>2016-06-07T11:22:05Z</time>
      </trkpt>
      <trkpt lat="44.36587" lon="6.39289">
        <ele>1679.5605469</ele>
        <time>2016-06-07T11:22:15Z</time>
      </trkpt>
      <trkpt lat="44.36595" lon="6.39291">
        <ele>1680.0412598</ele>
        <time>2016-06-07T11:22:19Z</time>
      </trkpt>
      <trkpt lat="44.36626" lon="6.39284">
        <ele>1683.8864746</ele>
        <time>2016-06-07T11:22:31Z</time>
      </trkpt>
      <trkpt lat="44.36655" lon="6.39264">
        <ele>1687.2509766</ele>
        <time>2016-06-07T11:22:43Z</time>
      </trkpt>
      <trkpt lat="44.36673" lon="6.39241">
        <ele>1689.6542969</ele>
        <time>2016-06-07T11:22:54Z</time>
      </trkpt>
      <trkpt lat="44.36678" lon="6.39238">
        <ele>1690.1350098</ele>
        <time>2016-06-07T11:22:56Z</time>
      </trkpt>
      <trkpt lat="44.36683" lon="6.39231">
        <ele>1690.6154785</ele>
        <time>2016-06-07T11:22:59Z</time>
      </trkpt>
      <trkpt lat="44.36695" lon="6.39201">
        <ele>1693.9804688</ele>
        <time>2016-06-07T11:23:09Z</time>
      </trkpt>
      <trkpt lat="44.36711" lon="6.39166">
        <ele>1696.8642578</ele>
        <time>2016-06-07T11:23:21Z</time>
      </trkpt>
      <trkpt lat="44.36735" lon="6.39196">
        <ele>1698.7868652</ele>
        <time>2016-06-07T11:23:34Z</time>
      </trkpt>
      <trkpt lat="44.36758" lon="6.39213">
        <ele>1700.7094727</ele>
        <time>2016-06-07T11:23:43Z</time>
      </trkpt>
      <trkpt lat="44.36789" lon="6.39235">
        <ele>1704.0742188</ele>
        <time>2016-06-07T11:23:55Z</time>
      </trkpt>
      <trkpt lat="44.36805" lon="6.39245">
        <ele>1705.5161133</ele>
        <time>2016-06-07T11:24:01Z</time>
      </trkpt>
      <trkpt lat="44.36829" lon="6.39258">
        <ele>1708.4001465</ele>
        <time>2016-06-07T11:24:11Z</time>
      </trkpt>
      <trkpt lat="44.36839" lon="6.39261">
        <ele>1709.842041</ele>
        <time>2016-06-07T11:24:15Z</time>
      </trkpt>
      <trkpt lat="44.36854" lon="6.39259">
        <ele>1711.2841797</ele>
        <time>2016-06-07T11:24:22Z</time>
      </trkpt>
      <trkpt lat="44.36864" lon="6.39257">
        <ele>1712.7260742</ele>
        <time>2016-06-07T11:24:27Z</time>
      </trkpt>
      <trkpt lat="44.36882" lon="6.39262">
        <ele>1714.6486816</ele>
        <time>2016-06-07T11:24:35Z</time>
      </trkpt>
      <trkpt lat="44.36889" lon="6.39266">
        <ele>1715.6101074</ele>
        <time>2016-06-07T11:24:38Z</time>
      </trkpt>
      <trkpt lat="44.36904" lon="6.39273">
        <ele>1717.5324707</ele>
        <time>2016-06-07T11:24:46Z</time>
      </trkpt>
      <trkpt lat="44.36932" lon="6.39266">
        <ele>1720.4165039</ele>
        <time>2016-06-07T11:24:58Z</time>
      </trkpt>
      <trkpt lat="44.36953" lon="6.39259">
        <ele>1722.8198242</ele>
        <time>2016-06-07T11:25:06Z</time>
      </trkpt>
      <trkpt lat="44.36961" lon="6.39252">
        <ele>1723.3005371</ele>
        <time>2016-06-07T11:25:09Z</time>
      </trkpt>
      <trkpt lat="44.3698" lon="6.39223">
        <ele>1726.6652832</ele>
        <time>2016-06-07T11:25:20Z</time>
      </trkpt>
      <trkpt lat="44.37008" lon="6.39206">
        <ele>1730.0297852</ele>
        <time>2016-06-07T11:25:32Z</time>
      </trkpt>
      <trkpt lat="44.37019" lon="6.392">
        <ele>1731.4716797</ele>
        <time>2016-06-07T11:25:37Z</time>
      </trkpt>
      <trkpt lat="44.37026" lon="6.39194">
        <ele>1731.9523926</ele>
        <time>2016-06-07T11:25:40Z</time>
      </trkpt>
      <trkpt lat="44.37029" lon="6.3919">
        <ele>1732.4331055</ele>
        <time>2016-06-07T11:25:42Z</time>
      </trkpt>
      <trkpt lat="44.37045" lon="6.39176">
        <ele>1734.3557129</ele>
        <time>2016-06-07T11:25:50Z</time>
      </trkpt>
      <trkpt lat="44.37076" lon="6.39163">
        <ele>1737.239502</ele>
        <time>2016-06-07T11:26:04Z</time>
      </trkpt>
      <trkpt lat="44.3708" lon="6.39161">
        <ele>1738.2009277</ele>
        <time>2016-06-07T11:26:06Z</time>
      </trkpt>
      <trkpt lat="44.37107" lon="6.39144">
        <ele>1742.0463867</ele>
        <time>2016-06-07T11:26:18Z</time>
      </trkpt>
      <trkpt lat="44.37113" lon="6.39142">
        <ele>1742.5270996</ele>
        <time>2016-06-07T11:26:20Z</time>
      </trkpt>
      <trkpt lat="44.37149" lon="6.39138">
        <ele>1745.4108887</ele>
        <time>2016-06-07T11:26:32Z</time>
      </trkpt>
      <trkpt lat="44.37177" lon="6.3915">
        <ele>1747.814209</ele>
        <time>2016-06-07T11:26:42Z</time>
      </trkpt>
      <trkpt lat="44.37207" lon="6.39177">
        <ele>1751.6594238</ele>
        <time>2016-06-07T11:26:55Z</time>
      </trkpt>
      <trkpt lat="44.37216" lon="6.3918">
        <ele>1752.1398926</ele>
        <time>2016-06-07T11:26:57Z</time>
      </trkpt>
      <trkpt lat="44.37253" lon="6.39188">
        <ele>1755.9851074</ele>
        <time>2016-06-07T11:27:10Z</time>
      </trkpt>
      <trkpt lat="44.37277" lon="6.39185">
        <ele>1758.3886719</ele>
        <time>2016-06-07T11:27:21Z</time>
      </trkpt>
      <trkpt lat="44.37309" lon="6.39167">
        <ele>1761.2727051</ele>
        <time>2016-06-07T11:27:32Z</time>
      </trkpt>
      <trkpt lat="44.37312" lon="6.3916">
        <ele>1762.2338867</ele>
        <time>2016-06-07T11:27:34Z</time>
      </trkpt>
      <trkpt lat="44.37338" lon="6.39131">
        <ele>1765.5986328</ele>
        <time>2016-06-07T11:27:46Z</time>
      </trkpt>
      <trkpt lat="44.37346" lon="6.39123">
        <ele>1766.5598145</ele>
        <time>2016-06-07T11:27:50Z</time>
      </trkpt>
      <trkpt lat="44.37375" lon="6.39111">
        <ele>1769.9243164</ele>
        <time>2016-06-07T11:28:01Z</time>
      </trkpt>
      <trkpt lat="44.37402" lon="6.391">
        <ele>1771.8469238</ele>
        <time>2016-06-07T11:28:11Z</time>
      </trkpt>
      <trkpt lat="44.37422" lon="6.391">
        <ele>1774.7312012</ele>
        <time>2016-06-07T11:28:18Z</time>
      </trkpt>
      <trkpt lat="44.37441" lon="6.39107">
        <ele>1776.1730957</ele>
        <time>2016-06-07T11:28:25Z</time>
      </trkpt>
      <trkpt lat="44.37466" lon="6.39147">
        <ele>1779.5375977</ele>
        <time>2016-06-07T11:28:37Z</time>
      </trkpt>
      <trkpt lat="44.37477" lon="6.39166">
        <ele>1781.940918</ele>
        <time>2016-06-07T11:28:44Z</time>
      </trkpt>
      <trkpt lat="44.37482" lon="6.39174">
        <ele>1782.4216309</ele>
        <time>2016-06-07T11:28:47Z</time>
      </trkpt>
      <trkpt lat="44.37485" lon="6.3918">
        <ele>1782.4216309</ele>
        <time>2016-06-07T11:28:49Z</time>
      </trkpt>
      <trkpt lat="44.37491" lon="6.39185">
        <ele>1782.4216309</ele>
        <time>2016-06-07T11:29:01Z</time>
      </trkpt>
      <trkpt lat="44.37491" lon="6.39185">
        <ele>1780.9797363</ele>
        <time>2016-06-07T11:29:11Z</time>
      </trkpt>
      <trkpt lat="44.37491" lon="6.39186">
        <ele>1782.4216309</ele>
        <time>2016-06-07T11:29:13Z</time>
      </trkpt>
      <trkpt lat="44.37497" lon="6.39191">
        <ele>1793.9575195</ele>
        <time>2016-06-07T11:33:46Z</time>
      </trkpt>
      <trkpt lat="44.37491" lon="6.39178">
        <ele>1779.5375977</ele>
        <time>2016-06-07T11:34:03Z</time>
      </trkpt>
      <trkpt lat="44.37492" lon="6.39179">
        <ele>1779.5375977</ele>
        <time>2016-06-07T11:34:04Z</time>
      </trkpt>
      <trkpt lat="44.37502" lon="6.39172">
        <ele>1780.0183105</ele>
        <time>2016-06-07T11:34:29Z</time>
      </trkpt>
      <trkpt lat="44.37516" lon="6.3914">
        <ele>1783.8635254</ele>
        <time>2016-06-07T11:34:38Z</time>
      </trkpt>
      <trkpt lat="44.37517" lon="6.39137">
        <ele>1783.8635254</ele>
        <time>2016-06-07T11:34:39Z</time>
      </trkpt>
      <trkpt lat="44.37526" lon="6.39112">
        <ele>1786.2668457</ele>
        <time>2016-06-07T11:34:46Z</time>
      </trkpt>
      <trkpt lat="44.37552" lon="6.39089">
        <ele>1789.6315918</ele>
        <time>2016-06-07T11:34:57Z</time>
      </trkpt>
      <trkpt lat="44.37557" lon="6.39088">
        <ele>1791.0734863</ele>
        <time>2016-06-07T11:34:59Z</time>
      </trkpt>
      <trkpt lat="44.37564" lon="6.39089">
        <ele>1792.515625</ele>
        <time>2016-06-07T11:35:02Z</time>
      </trkpt>
      <trkpt lat="44.37588" lon="6.39081">
        <ele>1794.4379883</ele>
        <time>2016-06-07T11:35:13Z</time>
      </trkpt>
      <trkpt lat="44.37609" lon="6.39068">
        <ele>1796.8413086</ele>
        <time>2016-06-07T11:35:21Z</time>
      </trkpt>
      <trkpt lat="44.37628" lon="6.39069">
        <ele>1798.763916</ele>
        <time>2016-06-07T11:35:29Z</time>
      </trkpt>
      <trkpt lat="44.37656" lon="6.39065">
        <ele>1800.2060547</ele>
        <time>2016-06-07T11:35:40Z</time>
      </trkpt>
      <trkpt lat="44.37686" lon="6.39052">
        <ele>1804.0515137</ele>
        <time>2016-06-07T11:35:52Z</time>
      </trkpt>
      <trkpt lat="44.37688" lon="6.39051">
        <ele>1804.0515137</ele>
        <time>2016-06-07T11:35:53Z</time>
      </trkpt>
      <trkpt lat="44.37711" lon="6.39047">
        <ele>1806.4545898</ele>
        <time>2016-06-07T11:36:02Z</time>
      </trkpt>
      <trkpt lat="44.37731" lon="6.39057">
        <ele>1808.3771973</ele>
        <time>2016-06-07T11:36:12Z</time>
      </trkpt>
      <trkpt lat="44.37752" lon="6.39071">
        <ele>1810.7805176</ele>
        <time>2016-06-07T11:36:23Z</time>
      </trkpt>
      <trkpt lat="44.37763" lon="6.39088">
        <ele>1812.703125</ele>
        <time>2016-06-07T11:36:29Z</time>
      </trkpt>
      <trkpt lat="44.3778" lon="6.39124">
        <ele>1815.1064453</ele>
        <time>2016-06-07T11:36:41Z</time>
      </trkpt>
      <trkpt lat="44.37795" lon="6.39165">
        <ele>1818.4709473</ele>
        <time>2016-06-07T11:36:54Z</time>
      </trkpt>
      <trkpt lat="44.37797" lon="6.39167">
        <ele>1818.4709473</ele>
        <time>2016-06-07T11:36:55Z</time>
      </trkpt>
      <trkpt lat="44.37813" lon="6.39201">
        <ele>1821.8356934</ele>
        <time>2016-06-07T11:37:07Z</time>
      </trkpt>
      <trkpt lat="44.37834" lon="6.39225">
        <ele>1823.7583008</ele>
        <time>2016-06-07T11:37:17Z</time>
      </trkpt>
      <trkpt lat="44.37859" lon="6.3924">
        <ele>1826.1616211</ele>
        <time>2016-06-07T11:37:28Z</time>
      </trkpt>
      <trkpt lat="44.37883" lon="6.3924">
        <ele>1828.5649414</ele>
        <time>2016-06-07T11:37:38Z</time>
      </trkpt>
      <trkpt lat="44.37914" lon="6.39233">
        <ele>1832.4101563</ele>
        <time>2016-06-07T11:37:52Z</time>
      </trkpt>
      <trkpt lat="44.37948" lon="6.39224">
        <ele>1835.2939453</ele>
        <time>2016-06-07T11:38:06Z</time>
      </trkpt>
      <trkpt lat="44.37967" lon="6.39218">
        <ele>1837.2167969</ele>
        <time>2016-06-07T11:38:14Z</time>
      </trkpt>
      <trkpt lat="44.37991" lon="6.39233">
        <ele>1840.1008301</ele>
        <time>2016-06-07T11:38:24Z</time>
      </trkpt>
      <trkpt lat="44.38014" lon="6.39228">
        <ele>1841.5427246</ele>
        <time>2016-06-07T11:38:34Z</time>
      </trkpt>
      <trkpt lat="44.38036" lon="6.39192">
        <ele>1845.3879395</ele>
        <time>2016-06-07T11:38:48Z</time>
      </trkpt>
      <trkpt lat="44.38052" lon="6.39178">
        <ele>1846.829834</ele>
        <time>2016-06-07T11:38:56Z</time>
      </trkpt>
      <trkpt lat="44.38072" lon="6.39173">
        <ele>1849.2331543</ele>
        <time>2016-06-07T11:39:04Z</time>
      </trkpt>
      <trkpt lat="44.38098" lon="6.39161">
        <ele>1851.1557617</ele>
        <time>2016-06-07T11:39:15Z</time>
      </trkpt>
      <trkpt lat="44.38117" lon="6.39149">
        <ele>1852.5979004</ele>
        <time>2016-06-07T11:39:23Z</time>
      </trkpt>
      <trkpt lat="44.3812" lon="6.39145">
        <ele>1853.5593262</ele>
        <time>2016-06-07T11:39:25Z</time>
      </trkpt>
      <trkpt lat="44.38151" lon="6.39123">
        <ele>1856.4431152</ele>
        <time>2016-06-07T11:39:39Z</time>
      </trkpt>
      <trkpt lat="44.38182" lon="6.39111">
        <ele>1859.8076172</ele>
        <time>2016-06-07T11:39:52Z</time>
      </trkpt>
      <trkpt lat="44.38211" lon="6.39095">
        <ele>1863.1723633</ele>
        <time>2016-06-07T11:40:04Z</time>
      </trkpt>
      <trkpt lat="44.38244" lon="6.3908">
        <ele>1865.5756836</ele>
        <time>2016-06-07T11:40:17Z</time>
      </trkpt>
      <trkpt lat="44.38267" lon="6.39077">
        <ele>1867.9787598</ele>
        <time>2016-06-07T11:40:28Z</time>
      </trkpt>
      <trkpt lat="44.38287" lon="6.39087">
        <ele>1870.3823242</ele>
        <time>2016-06-07T11:40:38Z</time>
      </trkpt>
      <trkpt lat="44.38319" lon="6.391">
        <ele>1873.2663574</ele>
        <time>2016-06-07T11:40:51Z</time>
      </trkpt>
      <trkpt lat="44.3835" lon="6.39105">
        <ele>1875.1887207</ele>
        <time>2016-06-07T11:41:03Z</time>
      </trkpt>
      <trkpt lat="44.38377" lon="6.39104">
        <ele>1878.5534668</ele>
        <time>2016-06-07T11:41:14Z</time>
      </trkpt>
      <trkpt lat="44.38406" lon="6.39115">
        <ele>1880.9567871</ele>
        <time>2016-06-07T11:41:26Z</time>
      </trkpt>
      <trkpt lat="44.38434" lon="6.39112">
        <ele>1884.3215332</ele>
        <time>2016-06-07T11:41:37Z</time>
      </trkpt>
      <trkpt lat="44.38479" lon="6.3911">
        <ele>1887.6860352</ele>
        <time>2016-06-07T11:41:55Z</time>
      </trkpt>
      <trkpt lat="44.38516" lon="6.39111">
        <ele>1890.5698242</ele>
        <time>2016-06-07T11:42:10Z</time>
      </trkpt>
      <trkpt lat="44.38541" lon="6.39092">
        <ele>1893.4538574</ele>
        <time>2016-06-07T11:42:23Z</time>
      </trkpt>
      <trkpt lat="44.38572" lon="6.39063">
        <ele>1896.3378906</ele>
        <time>2016-06-07T11:42:36Z</time>
      </trkpt>
      <trkpt lat="44.38586" lon="6.39053">
        <ele>1897.7797852</ele>
        <time>2016-06-07T11:42:42Z</time>
      </trkpt>
      <trkpt lat="44.38604" lon="6.39076">
        <ele>1900.6638184</ele>
        <time>2016-06-07T11:42:53Z</time>
      </trkpt>
      <trkpt lat="44.38614" lon="6.39088">
        <ele>1901.1445313</ele>
        <time>2016-06-07T11:43:06Z</time>
      </trkpt>
      <trkpt lat="44.38615" lon="6.39088">
        <ele>1904.0285645</ele>
        <time>2016-06-07T11:44:31Z</time>
      </trkpt>
      <trkpt lat="44.38613" lon="6.3909">
        <ele>1903.0671387</ele>
        <time>2016-06-07T11:44:57Z</time>
      </trkpt>
      <trkpt lat="44.38613" lon="6.3909">
        <ele>1902.5864258</ele>
        <time>2016-06-07T11:45:11Z</time>
      </trkpt>
      <trkpt lat="44.38628" lon="6.39082">
        <ele>1902.5864258</ele>
        <time>2016-06-07T11:45:20Z</time>
      </trkpt>
      <trkpt lat="44.38635" lon="6.39067">
        <ele>1904.5090332</ele>
        <time>2016-06-07T11:45:25Z</time>
      </trkpt>
      <trkpt lat="44.38658" lon="6.39032">
        <ele>1905.9509277</ele>
        <time>2016-06-07T11:45:38Z</time>
      </trkpt>
      <trkpt lat="44.38677" lon="6.39014">
        <ele>1908.354248</ele>
        <time>2016-06-07T11:45:48Z</time>
      </trkpt>
      <trkpt lat="44.38695" lon="6.39002">
        <ele>1911.7189941</ele>
        <time>2016-06-07T11:45:58Z</time>
      </trkpt>
      <trkpt lat="44.38733" lon="6.38969">
        <ele>1915.564209</ele>
        <time>2016-06-07T11:46:17Z</time>
      </trkpt>
      <trkpt lat="44.38757" lon="6.38941">
        <ele>1918.9289551</ele>
        <time>2016-06-07T11:46:30Z</time>
      </trkpt>
      <trkpt lat="44.38787" lon="6.38918">
        <ele>1921.8127441</ele>
        <time>2016-06-07T11:46:44Z</time>
      </trkpt>
      <trkpt lat="44.38791" lon="6.38914">
        <ele>1923.2548828</ele>
        <time>2016-06-07T11:46:46Z</time>
      </trkpt>
      <trkpt lat="44.38818" lon="6.38869">
        <ele>1926.6193848</ele>
        <time>2016-06-07T11:47:03Z</time>
      </trkpt>
      <trkpt lat="44.38844" lon="6.38855">
        <ele>1929.5031738</ele>
        <time>2016-06-07T11:47:15Z</time>
      </trkpt>
      <trkpt lat="44.38868" lon="6.3885">
        <ele>1932.3874512</ele>
        <time>2016-06-07T11:47:25Z</time>
      </trkpt>
      <trkpt lat="44.38896" lon="6.38831">
        <ele>1935.7519531</ele>
        <time>2016-06-07T11:47:38Z</time>
      </trkpt>
      <trkpt lat="44.38924" lon="6.38804">
        <ele>1938.6359863</ele>
        <time>2016-06-07T11:47:51Z</time>
      </trkpt>
      <trkpt lat="44.38951" lon="6.38771">
        <ele>1942.0004883</ele>
        <time>2016-06-07T11:48:04Z</time>
      </trkpt>
      <trkpt lat="44.38995" lon="6.38732">
        <ele>1942.9616699</ele>
        <time>2016-06-07T11:48:20Z</time>
      </trkpt>
      <trkpt lat="44.3904" lon="6.38685">
        <ele>1943.4423828</ele>
        <time>2016-06-07T11:48:36Z</time>
      </trkpt>
      <trkpt lat="44.39053" lon="6.38678">
        <ele>1943.4423828</ele>
        <time>2016-06-07T11:48:41Z</time>
      </trkpt>
      <trkpt lat="44.39072" lon="6.38665">
        <ele>1944.4035645</ele>
        <time>2016-06-07T11:48:48Z</time>
      </trkpt>
      <trkpt lat="44.39117" lon="6.38609">
        <ele>1947.2875977</ele>
        <time>2016-06-07T11:49:07Z</time>
      </trkpt>
      <trkpt lat="44.39161" lon="6.3856">
        <ele>1950.6523438</ele>
        <time>2016-06-07T11:49:24Z</time>
      </trkpt>
      <trkpt lat="44.39206" lon="6.38522">
        <ele>1954.0170898</ele>
        <time>2016-06-07T11:49:41Z</time>
      </trkpt>
      <trkpt lat="44.39241" lon="6.38484">
        <ele>1956.9008789</ele>
        <time>2016-06-07T11:49:57Z</time>
      </trkpt>
      <trkpt lat="44.39272" lon="6.38439">
        <ele>1959.784668</ele>
        <time>2016-06-07T11:50:13Z</time>
      </trkpt>
      <trkpt lat="44.39309" lon="6.38433">
        <ele>1962.1879883</ele>
        <time>2016-06-07T11:50:26Z</time>
      </trkpt>
      <trkpt lat="44.39358" lon="6.38406">
        <ele>1964.5915527</ele>
        <time>2016-06-07T11:50:43Z</time>
      </trkpt>
      <trkpt lat="44.39395" lon="6.38377">
        <ele>1966.5141602</ele>
        <time>2016-06-07T11:50:57Z</time>
      </trkpt>
      <trkpt lat="44.39456" lon="6.38335">
        <ele>1969.3981934</ele>
        <time>2016-06-07T11:51:18Z</time>
      </trkpt>
      <trkpt lat="44.39509" lon="6.38302">
        <ele>1972.2819824</ele>
        <time>2016-06-07T11:51:35Z</time>
      </trkpt>
      <trkpt lat="44.39555" lon="6.38268">
        <ele>1974.6853027</ele>
        <time>2016-06-07T11:51:51Z</time>
      </trkpt>
      <trkpt lat="44.39593" lon="6.38235">
        <ele>1977.088623</ele>
        <time>2016-06-07T11:52:06Z</time>
      </trkpt>
      <trkpt lat="44.39631" lon="6.38176">
        <ele>1979.4916992</ele>
        <time>2016-06-07T11:52:23Z</time>
      </trkpt>
      <trkpt lat="44.39647" lon="6.3814">
        <ele>1980.4533691</ele>
        <time>2016-06-07T11:52:35Z</time>
      </trkpt>
      <trkpt lat="44.39648" lon="6.38141">
        <ele>1981.4145508</ele>
        <time>2016-06-07T11:54:09Z</time>
      </trkpt>
      <trkpt lat="44.39648" lon="6.38142">
        <ele>1981.4145508</ele>
        <time>2016-06-07T11:54:22Z</time>
      </trkpt>
      <trkpt lat="44.39669" lon="6.38119">
        <ele>1982.3759766</ele>
        <time>2016-06-07T11:54:32Z</time>
      </trkpt>
      <trkpt lat="44.39695" lon="6.38107">
        <ele>1983.3371582</ele>
        <time>2016-06-07T11:54:40Z</time>
      </trkpt>
      <trkpt lat="44.39736" lon="6.381">
        <ele>1984.7792969</ele>
        <time>2016-06-07T11:54:53Z</time>
      </trkpt>
      <trkpt lat="44.39744" lon="6.38098">
        <ele>1985.7404785</ele>
        <time>2016-06-07T11:54:56Z</time>
      </trkpt>
      <trkpt lat="44.39763" lon="6.38088">
        <ele>1985.7404785</ele>
        <time>2016-06-07T11:55:03Z</time>
      </trkpt>
      <trkpt lat="44.39765" lon="6.38085">
        <ele>1987.182373</ele>
        <time>2016-06-07T11:55:06Z</time>
      </trkpt>
      <trkpt lat="44.39765" lon="6.38085">
        <ele>1985.7404785</ele>
        <time>2016-06-07T11:55:20Z</time>
      </trkpt>
      <trkpt lat="44.39765" lon="6.38085">
        <ele>1987.6630859</ele>
        <time>2016-06-07T11:55:45Z</time>
      </trkpt>
      <trkpt lat="44.39765" lon="6.38086">
        <ele>1986.7016602</ele>
        <time>2016-06-07T11:56:11Z</time>
      </trkpt>
      <trkpt lat="44.39767" lon="6.38086">
        <ele>1988.1437988</ele>
        <time>2016-06-07T11:57:16Z</time>
      </trkpt>
      <trkpt lat="44.39795" lon="6.38075">
        <ele>1988.6245117</ele>
        <time>2016-06-07T11:57:28Z</time>
      </trkpt>
      <trkpt lat="44.3984" lon="6.38068">
        <ele>1989.5856934</ele>
        <time>2016-06-07T11:57:40Z</time>
      </trkpt>
      <trkpt lat="44.39854" lon="6.3807">
        <ele>1989.1049805</ele>
        <time>2016-06-07T11:57:44Z</time>
      </trkpt>
      <trkpt lat="44.39885" lon="6.38068">
        <ele>1991.0275879</ele>
        <time>2016-06-07T11:57:53Z</time>
      </trkpt>
      <trkpt lat="44.39933" lon="6.38041">
        <ele>1991.9890137</ele>
        <time>2016-06-07T11:58:06Z</time>
      </trkpt>
      <trkpt lat="44.39962" lon="6.38031">
        <ele>1994.8728027</ele>
        <time>2016-06-07T11:58:15Z</time>
      </trkpt>
      <trkpt lat="44.39983" lon="6.38025">
        <ele>1996.7956543</ele>
        <time>2016-06-07T11:58:23Z</time>
      </trkpt>
      <trkpt lat="44.39996" lon="6.38018">
        <ele>1998.2375488</ele>
        <time>2016-06-07T11:58:35Z</time>
      </trkpt>
      <trkpt lat="44.39997" lon="6.38017">
        <ele>1997.7570801</ele>
        <time>2016-06-07T11:58:45Z</time>
      </trkpt>
      <trkpt lat="44.40001" lon="6.38013">
        <ele>1998.2375488</ele>
        <time>2016-06-07T11:58:50Z</time>
      </trkpt>
      <trkpt lat="44.40009" lon="6.38007">
        <ele>1998.2375488</ele>
        <time>2016-06-07T11:59:06Z</time>
      </trkpt>
      <trkpt lat="44.40034" lon="6.37984">
        <ele>2000.1604004</ele>
        <time>2016-06-07T11:59:34Z</time>
      </trkpt>
      <trkpt lat="44.40053" lon="6.37972">
        <ele>2002.5634766</ele>
        <time>2016-06-07T11:59:55Z</time>
      </trkpt>
      <trkpt lat="44.40074" lon="6.37968">
        <ele>2004.486084</ele>
        <time>2016-06-07T12:00:18Z</time>
      </trkpt>
      <trkpt lat="44.40081" lon="6.37961">
        <ele>2004.9667969</ele>
        <time>2016-06-07T12:00:48Z</time>
      </trkpt>
      <trkpt lat="44.40081" lon="6.37961">
        <ele>2004.486084</ele>
        <time>2016-06-07T12:01:42Z</time>
      </trkpt>
      <trkpt lat="44.40081" lon="6.37961">
        <ele>2005.4475098</ele>
        <time>2016-06-07T12:02:11Z</time>
      </trkpt>
      <trkpt lat="44.40083" lon="6.37961">
        <ele>2005.9279785</ele>
        <time>2016-06-07T12:03:00Z</time>
      </trkpt>
      <trkpt lat="44.40083" lon="6.37961">
        <ele>2005.9279785</ele>
        <time>2016-06-07T12:03:42Z</time>
      </trkpt>
      <trkpt lat="44.40083" lon="6.3796">
        <ele>2007.3701172</ele>
        <time>2016-06-07T12:05:24Z</time>
      </trkpt>
      <trkpt lat="44.40084" lon="6.37959">
        <ele>2006.4086914</ele>
        <time>2016-06-07T12:06:15Z</time>
      </trkpt>
      <trkpt lat="44.40088" lon="6.37953">
        <ele>2005.9279785</ele>
        <time>2016-06-07T12:06:42Z</time>
      </trkpt>
      <trkpt lat="44.40097" lon="6.37947">
        <ele>2004.9667969</ele>
        <time>2016-06-07T12:06:45Z</time>
      </trkpt>
      <trkpt lat="44.40105" lon="6.37939">
        <ele>2003.5249023</ele>
        <time>2016-06-07T12:06:47Z</time>
      </trkpt>
      <trkpt lat="44.40116" lon="6.37924">
        <ele>2002.0827637</ele>
        <time>2016-06-07T12:06:50Z</time>
      </trkpt>
      <trkpt lat="44.40133" lon="6.379">
        <ele>1999.6796875</ele>
        <time>2016-06-07T12:06:54Z</time>
      </trkpt>
      <trkpt lat="44.40144" lon="6.37882">
        <ele>1998.2375488</ele>
        <time>2016-06-07T12:06:57Z</time>
      </trkpt>
      <trkpt lat="44.40173" lon="6.37836">
        <ele>1994.8728027</ele>
        <time>2016-06-07T12:07:05Z</time>
      </trkpt>
      <trkpt lat="44.40199" lon="6.37814">
        <ele>1991.5083008</ele>
        <time>2016-06-07T12:07:10Z</time>
      </trkpt>
      <trkpt lat="44.40218" lon="6.37795">
        <ele>1989.1049805</ele>
        <time>2016-06-07T12:07:14Z</time>
      </trkpt>
      <trkpt lat="44.40225" lon="6.37782">
        <ele>1987.6630859</ele>
        <time>2016-06-07T12:07:16Z</time>
      </trkpt>
      <trkpt lat="44.40232" lon="6.37758">
        <ele>1985.7404785</ele>
        <time>2016-06-07T12:07:19Z</time>
      </trkpt>
      <trkpt lat="44.40236" lon="6.37745">
        <ele>1984.298584</ele>
        <time>2016-06-07T12:07:21Z</time>
      </trkpt>
      <trkpt lat="44.40257" lon="6.37702">
        <ele>1981.8952637</ele>
        <time>2016-06-07T12:07:27Z</time>
      </trkpt>
      <trkpt lat="44.40264" lon="6.37687">
        <ele>1980.4533691</ele>
        <time>2016-06-07T12:07:29Z</time>
      </trkpt>
      <trkpt lat="44.40272" lon="6.37674">
        <ele>1979.0109863</ele>
        <time>2016-06-07T12:07:31Z</time>
      </trkpt>
      <trkpt lat="44.40277" lon="6.37662">
        <ele>1975.6464844</ele>
        <time>2016-06-07T12:07:33Z</time>
      </trkpt>
      <trkpt lat="44.40279" lon="6.37656">
        <ele>1975.6464844</ele>
        <time>2016-06-07T12:07:34Z</time>
      </trkpt>
      <trkpt lat="44.40284" lon="6.37645">
        <ele>1975.1657715</ele>
        <time>2016-06-07T12:07:36Z</time>
      </trkpt>
      <trkpt lat="44.40301" lon="6.37625">
        <ele>1972.7626953</ele>
        <time>2016-06-07T12:07:40Z</time>
      </trkpt>
      <trkpt lat="44.40313" lon="6.37614">
        <ele>1971.8012695</ele>
        <time>2016-06-07T12:07:42Z</time>
      </trkpt>
      <trkpt lat="44.40341" lon="6.37585">
        <ele>1968.4367676</ele>
        <time>2016-06-07T12:07:47Z</time>
      </trkpt>
      <trkpt lat="44.40347" lon="6.37579">
        <ele>1968.4367676</ele>
        <time>2016-06-07T12:07:48Z</time>
      </trkpt>
      <trkpt lat="44.40357" lon="6.37569">
        <ele>1966.5141602</ele>
        <time>2016-06-07T12:07:50Z</time>
      </trkpt>
      <trkpt lat="44.40369" lon="6.37561">
        <ele>1964.5915527</ele>
        <time>2016-06-07T12:07:53Z</time>
      </trkpt>
      <trkpt lat="44.40393" lon="6.37552">
        <ele>1963.1494141</ele>
        <time>2016-06-07T12:07:57Z</time>
      </trkpt>
      <trkpt lat="44.40402" lon="6.37546">
        <ele>1961.7075195</ele>
        <time>2016-06-07T12:07:59Z</time>
      </trkpt>
      <trkpt lat="44.40407" lon="6.37545">
        <ele>1960.7460938</ele>
        <time>2016-06-07T12:08:00Z</time>
      </trkpt>
      <trkpt lat="44.40426" lon="6.37539">
        <ele>1959.3041992</ele>
        <time>2016-06-07T12:08:04Z</time>
      </trkpt>
      <trkpt lat="44.40433" lon="6.37541">
        <ele>1957.8623047</ele>
        <time>2016-06-07T12:08:06Z</time>
      </trkpt>
      <trkpt lat="44.40436" lon="6.37543">
        <ele>1956.9008789</ele>
        <time>2016-06-07T12:08:07Z</time>
      </trkpt>
      <trkpt lat="44.40435" lon="6.37534">
        <ele>1955.9394531</ele>
        <time>2016-06-07T12:08:11Z</time>
      </trkpt>
      <trkpt lat="44.40435" lon="6.37515">
        <ele>1953.0556641</ele>
        <time>2016-06-07T12:08:18Z</time>
      </trkpt>
      <trkpt lat="44.40439" lon="6.37514">
        <ele>1953.0556641</ele>
        <time>2016-06-07T12:08:27Z</time>
      </trkpt>
      <trkpt lat="44.40438" lon="6.37522">
        <ele>1953.0556641</ele>
        <time>2016-06-07T12:08:51Z</time>
      </trkpt>
      <trkpt lat="44.40429" lon="6.37527">
        <ele>1955.4589844</ele>
        <time>2016-06-07T12:09:47Z</time>
      </trkpt>
      <trkpt lat="44.4042" lon="6.37531">
        <ele>1955.4589844</ele>
        <time>2016-06-07T12:10:02Z</time>
      </trkpt>
      <trkpt lat="44.40397" lon="6.37527">
        <ele>1954.4975586</ele>
        <time>2016-06-07T12:10:14Z</time>
      </trkpt>
      <trkpt lat="44.40384" lon="6.37528">
        <ele>1954.4975586</ele>
        <time>2016-06-07T12:10:19Z</time>
      </trkpt>
      <trkpt lat="44.40336" lon="6.37528">
        <ele>1954.0170898</ele>
        <time>2016-06-07T12:10:35Z</time>
      </trkpt>
      <trkpt lat="44.40295" lon="6.37547">
        <ele>1952.5749512</ele>
        <time>2016-06-07T12:10:48Z</time>
      </trkpt>
      <trkpt lat="44.40291" lon="6.3755">
        <ele>1952.0942383</ele>
        <time>2016-06-07T12:10:50Z</time>
      </trkpt>
      <trkpt lat="44.40288" lon="6.37549">
        <ele>1952.5749512</ele>
        <time>2016-06-07T12:11:08Z</time>
      </trkpt>
      <trkpt lat="44.40288" lon="6.37549">
        <ele>1951.1330566</ele>
        <time>2016-06-07T12:11:13Z</time>
      </trkpt>
      <trkpt lat="44.40293" lon="6.37552">
        <ele>1951.6137695</ele>
        <time>2016-06-07T12:11:48Z</time>
      </trkpt>
      <trkpt lat="44.40271" lon="6.37556">
        <ele>1951.1330566</ele>
        <time>2016-06-07T12:12:36Z</time>
      </trkpt>
      <trkpt lat="44.40226" lon="6.3757">
        <ele>1950.171875</ele>
        <time>2016-06-07T12:12:53Z</time>
      </trkpt>
      <trkpt lat="44.40217" lon="6.37577">
        <ele>1950.171875</ele>
        <time>2016-06-07T12:13:04Z</time>
      </trkpt>
      <trkpt lat="44.40207" lon="6.37581">
        <ele>1949.6911621</ele>
        <time>2016-06-07T12:13:15Z</time>
      </trkpt>
      <trkpt lat="44.40187" lon="6.37595">
        <ele>1948.7297363</ele>
        <time>2016-06-07T12:13:33Z</time>
      </trkpt>
      <trkpt lat="44.40125" lon="6.37631">
        <ele>1944.8842773</ele>
        <time>2016-06-07T12:13:47Z</time>
      </trkpt>
      <trkpt lat="44.40116" lon="6.37638">
        <ele>1943.9230957</ele>
        <time>2016-06-07T12:13:49Z</time>
      </trkpt>
      <trkpt lat="44.40061" lon="6.37675">
        <ele>1940.0778809</ele>
        <time>2016-06-07T12:14:01Z</time>
      </trkpt>
      <trkpt lat="44.40012" lon="6.37707">
        <ele>1936.7131348</ele>
        <time>2016-06-07T12:14:11Z</time>
      </trkpt>
      <trkpt lat="44.39971" lon="6.37729">
        <ele>1933.3486328</ele>
        <time>2016-06-07T12:14:18Z</time>
      </trkpt>
      <trkpt lat="44.3993" lon="6.37748">
        <ele>1930.4645996</ele>
        <time>2016-06-07T12:14:25Z</time>
      </trkpt>
      <trkpt lat="44.39883" lon="6.37767">
        <ele>1927.1000977</ele>
        <time>2016-06-07T12:14:32Z</time>
      </trkpt>
      <trkpt lat="44.39875" lon="6.37769">
        <ele>1927.1000977</ele>
        <time>2016-06-07T12:14:33Z</time>
      </trkpt>
      <trkpt lat="44.39846" lon="6.37775">
        <ele>1924.6967773</ele>
        <time>2016-06-07T12:14:37Z</time>
      </trkpt>
      <trkpt lat="44.39826" lon="6.37781">
        <ele>1923.2548828</ele>
        <time>2016-06-07T12:14:40Z</time>
      </trkpt>
      <trkpt lat="44.39816" lon="6.37783">
        <ele>1921.8127441</ele>
        <time>2016-06-07T12:14:42Z</time>
      </trkpt>
      <trkpt lat="44.39811" lon="6.37781">
        <ele>1920.8515625</ele>
        <time>2016-06-07T12:14:51Z</time>
      </trkpt>
      <trkpt lat="44.39809" lon="6.3778">
        <ele>1920.3708496</ele>
        <time>2016-06-07T12:15:02Z</time>
      </trkpt>
      <trkpt lat="44.39803" lon="6.37771">
        <ele>1918.4482422</ele>
        <time>2016-06-07T12:15:14Z</time>
      </trkpt>
      <trkpt lat="44.39805" lon="6.37737">
        <ele>1915.0834961</ele>
        <time>2016-06-07T12:15:22Z</time>
      </trkpt>
      <trkpt lat="44.39805" lon="6.37726">
        <ele>1914.1220703</ele>
        <time>2016-06-07T12:15:24Z</time>
      </trkpt>
      <trkpt lat="44.39807" lon="6.37705">
        <ele>1910.7575684</ele>
        <time>2016-06-07T12:15:27Z</time>
      </trkpt>
      <trkpt lat="44.39808" lon="6.37698">
        <ele>1910.7575684</ele>
        <time>2016-06-07T12:15:28Z</time>
      </trkpt>
      <trkpt lat="44.39809" lon="6.37678">
        <ele>1908.8349609</ele>
        <time>2016-06-07T12:15:31Z</time>
      </trkpt>
      <trkpt lat="44.39809" lon="6.37664">
        <ele>1907.3930664</ele>
        <time>2016-06-07T12:15:33Z</time>
      </trkpt>
      <trkpt lat="44.39812" lon="6.37636">
        <ele>1903.0671387</ele>
        <time>2016-06-07T12:15:37Z</time>
      </trkpt>
      <trkpt lat="44.39813" lon="6.37629">
        <ele>1903.0671387</ele>
        <time>2016-06-07T12:15:38Z</time>
      </trkpt>
      <trkpt lat="44.39814" lon="6.37617">
        <ele>1901.6252441</ele>
        <time>2016-06-07T12:15:40Z</time>
      </trkpt>
      <trkpt lat="44.39815" lon="6.37605">
        <ele>1901.1445313</ele>
        <time>2016-06-07T12:15:42Z</time>
      </trkpt>
      <trkpt lat="44.39822" lon="6.37587">
        <ele>1899.2216797</ele>
        <time>2016-06-07T12:15:45Z</time>
      </trkpt>
      <trkpt lat="44.39844" lon="6.37544">
        <ele>1897.2990723</ele>
        <time>2016-06-07T12:15:52Z</time>
      </trkpt>
      <trkpt lat="44.39874" lon="6.37471">
        <ele>1893.9345703</ele>
        <time>2016-06-07T12:16:02Z</time>
      </trkpt>
      <trkpt lat="44.39892" lon="6.37433">
        <ele>1891.0505371</ele>
        <time>2016-06-07T12:16:08Z</time>
      </trkpt>
      <trkpt lat="44.39912" lon="6.37393">
        <ele>1889.1279297</ele>
        <time>2016-06-07T12:16:15Z</time>
      </trkpt>
      <trkpt lat="44.39917" lon="6.37381">
        <ele>1888.166748</ele>
        <time>2016-06-07T12:16:17Z</time>
      </trkpt>
      <trkpt lat="44.39933" lon="6.37362">
        <ele>1886.2441406</ele>
        <time>2016-06-07T12:16:21Z</time>
      </trkpt>
      <trkpt lat="44.39937" lon="6.37358">
        <ele>1886.2441406</ele>
        <time>2016-06-07T12:16:22Z</time>
      </trkpt>
      <trkpt lat="44.39959" lon="6.37345">
        <ele>1884.3215332</ele>
        <time>2016-06-07T12:16:27Z</time>
      </trkpt>
      <trkpt lat="44.39966" lon="6.3734">
        <ele>1883.3598633</ele>
        <time>2016-06-07T12:16:29Z</time>
      </trkpt>
      <trkpt lat="44.39972" lon="6.37335">
        <ele>1882.8791504</ele>
        <time>2016-06-07T12:16:31Z</time>
      </trkpt>
      <trkpt lat="44.39994" lon="6.3729">
        <ele>1879.0339355</ele>
        <time>2016-06-07T12:16:39Z</time>
      </trkpt>
      <trkpt lat="44.40007" lon="6.37257">
        <ele>1875.6694336</ele>
        <time>2016-06-07T12:16:44Z</time>
      </trkpt>
      <trkpt lat="44.4001" lon="6.3725">
        <ele>1875.6694336</ele>
        <time>2016-06-07T12:16:45Z</time>
      </trkpt>
      <trkpt lat="44.4002" lon="6.37228">
        <ele>1873.2663574</ele>
        <time>2016-06-07T12:16:48Z</time>
      </trkpt>
      <trkpt lat="44.40039" lon="6.37198">
        <ele>1870.8630371</ele>
        <time>2016-06-07T12:16:52Z</time>
      </trkpt>
      <trkpt lat="44.40051" lon="6.37185">
        <ele>1868.9404297</ele>
        <time>2016-06-07T12:16:54Z</time>
      </trkpt>
      <trkpt lat="44.40061" lon="6.37174">
        <ele>1867.4980469</ele>
        <time>2016-06-07T12:16:56Z</time>
      </trkpt>
      <trkpt lat="44.40071" lon="6.37164">
        <ele>1865.5756836</ele>
        <time>2016-06-07T12:16:58Z</time>
      </trkpt>
      <trkpt lat="44.40085" lon="6.37152">
        <ele>1863.652832</ele>
        <time>2016-06-07T12:17:01Z</time>
      </trkpt>
      <trkpt lat="44.401" lon="6.37138">
        <ele>1861.2497559</ele>
        <time>2016-06-07T12:17:06Z</time>
      </trkpt>
      <trkpt lat="44.40111" lon="6.37131">
        <ele>1859.3271484</ele>
        <time>2016-06-07T12:17:10Z</time>
      </trkpt>
      <trkpt lat="44.40115" lon="6.3712">
        <ele>1857.8852539</ele>
        <time>2016-06-07T12:17:13Z</time>
      </trkpt>
      <trkpt lat="44.40118" lon="6.37113">
        <ele>1857.404541</ele>
        <time>2016-06-07T12:17:15Z</time>
      </trkpt>
      <trkpt lat="44.40133" lon="6.37091">
        <ele>1855.9624023</ele>
        <time>2016-06-07T12:17:20Z</time>
      </trkpt>
      <trkpt lat="44.40155" lon="6.37054">
        <ele>1851.6364746</ele>
        <time>2016-06-07T12:17:28Z</time>
      </trkpt>
      <trkpt lat="44.40158" lon="6.37049">
        <ele>1851.6364746</ele>
        <time>2016-06-07T12:17:29Z</time>
      </trkpt>
      <trkpt lat="44.40193" lon="6.36983">
        <ele>1848.7524414</ele>
        <time>2016-06-07T12:17:42Z</time>
      </trkpt>
      <trkpt lat="44.40202" lon="6.36946">
        <ele>1846.829834</ele>
        <time>2016-06-07T12:17:53Z</time>
      </trkpt>
      <trkpt lat="44.40223" lon="6.36933">
        <ele>1846.3493652</ele>
        <time>2016-06-07T12:18:05Z</time>
      </trkpt>
      <trkpt lat="44.4023" lon="6.36923">
        <ele>1845.3879395</ele>
        <time>2016-06-07T12:18:14Z</time>
      </trkpt>
      <trkpt lat="44.40239" lon="6.36904">
        <ele>1844.9072266</ele>
        <time>2016-06-07T12:18:38Z</time>
      </trkpt>
      <trkpt lat="44.40239" lon="6.36897">
        <ele>1844.9072266</ele>
        <time>2016-06-07T12:18:53Z</time>
      </trkpt>
      <trkpt lat="44.4024" lon="6.36894">
        <ele>1844.9072266</ele>
        <time>2016-06-07T12:19:28Z</time>
      </trkpt>
      <trkpt lat="44.4024" lon="6.36894">
        <ele>1846.829834</ele>
        <time>2016-06-07T12:20:25Z</time>
      </trkpt>
      <trkpt lat="44.40241" lon="6.36894">
        <ele>1846.829834</ele>
        <time>2016-06-07T12:21:30Z</time>
      </trkpt>
      <trkpt lat="44.40245" lon="6.36893">
        <ele>1846.3493652</ele>
        <time>2016-06-07T12:21:33Z</time>
      </trkpt>
      <trkpt lat="44.40249" lon="6.36891">
        <ele>1846.3493652</ele>
        <time>2016-06-07T12:21:36Z</time>
      </trkpt>
      <trkpt lat="44.40263" lon="6.36876">
        <ele>1843.465332</ele>
        <time>2016-06-07T12:21:43Z</time>
      </trkpt>
      <trkpt lat="44.40269" lon="6.3687">
        <ele>1842.5041504</ele>
        <time>2016-06-07T12:21:45Z</time>
      </trkpt>
      <trkpt lat="44.40281" lon="6.36863">
        <ele>1840.5812988</ele>
        <time>2016-06-07T12:21:48Z</time>
      </trkpt>
      <trkpt lat="44.40289" lon="6.3686">
        <ele>1838.1782227</ele>
        <time>2016-06-07T12:21:50Z</time>
      </trkpt>
      <trkpt lat="44.40303" lon="6.36863">
        <ele>1836.736084</ele>
        <time>2016-06-07T12:21:53Z</time>
      </trkpt>
      <trkpt lat="44.40323" lon="6.36877">
        <ele>1832.890625</ele>
        <time>2016-06-07T12:22:00Z</time>
      </trkpt>
      <trkpt lat="44.4035" lon="6.36888">
        <ele>1830.4875488</ele>
        <time>2016-06-07T12:22:07Z</time>
      </trkpt>
      <trkpt lat="44.40368" lon="6.36896">
        <ele>1828.0842285</ele>
        <time>2016-06-07T12:22:11Z</time>
      </trkpt>
      <trkpt lat="44.40372" lon="6.36899">
        <ele>1827.1230469</ele>
        <time>2016-06-07T12:22:12Z</time>
      </trkpt>
      <trkpt lat="44.4038" lon="6.36907">
        <ele>1825.6809082</ele>
        <time>2016-06-07T12:22:14Z</time>
      </trkpt>
      <trkpt lat="44.40386" lon="6.36916">
        <ele>1824.2390137</ele>
        <time>2016-06-07T12:22:16Z</time>
      </trkpt>
      <trkpt lat="44.40392" lon="6.36927">
        <ele>1822.7971191</ele>
        <time>2016-06-07T12:22:18Z</time>
      </trkpt>
      <trkpt lat="44.40398" lon="6.36937">
        <ele>1819.432373</ele>
        <time>2016-06-07T12:22:20Z</time>
      </trkpt>
      <trkpt lat="44.404" lon="6.36943">
        <ele>1819.432373</ele>
        <time>2016-06-07T12:22:21Z</time>
      </trkpt>
      <trkpt lat="44.40404" lon="6.36954">
        <ele>1817.9902344</ele>
        <time>2016-06-07T12:22:23Z</time>
      </trkpt>
      <trkpt lat="44.40409" lon="6.36964">
        <ele>1816.5483398</ele>
        <time>2016-06-07T12:22:25Z</time>
      </trkpt>
      <trkpt lat="44.40417" lon="6.36984">
        <ele>1813.1838379</ele>
        <time>2016-06-07T12:22:29Z</time>
      </trkpt>
      <trkpt lat="44.40419" lon="6.36988">
        <ele>1813.1838379</ele>
        <time>2016-06-07T12:22:30Z</time>
      </trkpt>
      <trkpt lat="44.40429" lon="6.37006">
        <ele>1810.7805176</ele>
        <time>2016-06-07T12:22:34Z</time>
      </trkpt>
      <trkpt lat="44.40435" lon="6.37019">
        <ele>1808.8579102</ele>
        <time>2016-06-07T12:22:37Z</time>
      </trkpt>
      <trkpt lat="44.40445" lon="6.37036">
        <ele>1806.4545898</ele>
        <time>2016-06-07T12:22:41Z</time>
      </trkpt>
      <trkpt lat="44.40453" lon="6.37048">
        <ele>1804.0515137</ele>
        <time>2016-06-07T12:22:44Z</time>
      </trkpt>
      <trkpt lat="44.40463" lon="6.37066">
        <ele>1801.6479492</ele>
        <time>2016-06-07T12:22:48Z</time>
      </trkpt>
      <trkpt lat="44.40471" lon="6.37078">
        <ele>1800.2060547</ele>
        <time>2016-06-07T12:22:51Z</time>
      </trkpt>
      <trkpt lat="44.40489" lon="6.37102">
        <ele>1796.8413086</ele>
        <time>2016-06-07T12:22:59Z</time>
      </trkpt>
      <trkpt lat="44.40502" lon="6.37109">
        <ele>1794.4379883</ele>
        <time>2016-06-07T12:23:03Z</time>
      </trkpt>
      <trkpt lat="44.40516" lon="6.37101">
        <ele>1792.0349121</ele>
        <time>2016-06-07T12:23:07Z</time>
      </trkpt>
      <trkpt lat="44.40521" lon="6.37093">
        <ele>1791.0734863</ele>
        <time>2016-06-07T12:23:09Z</time>
      </trkpt>
      <trkpt lat="44.40524" lon="6.37084">
        <ele>1789.6315918</ele>
        <time>2016-06-07T12:23:11Z</time>
      </trkpt>
      <trkpt lat="44.40525" lon="6.37079">
        <ele>1788.6704102</ele>
        <time>2016-06-07T12:23:12Z</time>
      </trkpt>
      <trkpt lat="44.40528" lon="6.37067">
        <ele>1787.2280273</ele>
        <time>2016-06-07T12:23:14Z</time>
      </trkpt>
      <trkpt lat="44.40531" lon="6.37042">
        <ele>1784.8249512</ele>
        <time>2016-06-07T12:23:18Z</time>
      </trkpt>
      <trkpt lat="44.40533" lon="6.37024">
        <ele>1781.940918</ele>
        <time>2016-06-07T12:23:21Z</time>
      </trkpt>
      <trkpt lat="44.40538" lon="6.37">
        <ele>1778.576416</ele>
        <time>2016-06-07T12:23:26Z</time>
      </trkpt>
      <trkpt lat="44.4054" lon="6.36991">
        <ele>1777.6149902</ele>
        <time>2016-06-07T12:23:28Z</time>
      </trkpt>
      <trkpt lat="44.4057" lon="6.36971">
        <ele>1774.7312012</ele>
        <time>2016-06-07T12:23:40Z</time>
      </trkpt>
      <trkpt lat="44.40593" lon="6.36988">
        <ele>1771.3662109</ele>
        <time>2016-06-07T12:23:50Z</time>
      </trkpt>
      <trkpt lat="44.40596" lon="6.36988">
        <ele>1771.3662109</ele>
        <time>2016-06-07T12:23:51Z</time>
      </trkpt>
      <trkpt lat="44.40603" lon="6.36989">
        <ele>1770.8857422</ele>
        <time>2016-06-07T12:23:53Z</time>
      </trkpt>
      <trkpt lat="44.40612" lon="6.36974">
        <ele>1767.0405273</ele>
        <time>2016-06-07T12:23:58Z</time>
      </trkpt>
      <trkpt lat="44.40612" lon="6.3697">
        <ele>1765.5986328</ele>
        <time>2016-06-07T12:23:59Z</time>
      </trkpt>
      <trkpt lat="44.40612" lon="6.36956">
        <ele>1764.1564941</ele>
        <time>2016-06-07T12:24:02Z</time>
      </trkpt>
      <trkpt lat="44.40613" lon="6.36942">
        <ele>1761.2727051</ele>
        <time>2016-06-07T12:24:05Z</time>
      </trkpt>
      <trkpt lat="44.40609" lon="6.3693">
        <ele>1757.9082031</ele>
        <time>2016-06-07T12:24:08Z</time>
      </trkpt>
      <trkpt lat="44.40607" lon="6.36926">
        <ele>1757.9082031</ele>
        <time>2016-06-07T12:24:09Z</time>
      </trkpt>
      <trkpt lat="44.40606" lon="6.36915">
        <ele>1755.5046387</ele>
        <time>2016-06-07T12:24:12Z</time>
      </trkpt>
      <trkpt lat="44.40602" lon="6.36909">
        <ele>1755.0239258</ele>
        <time>2016-06-07T12:24:14Z</time>
      </trkpt>
      <trkpt lat="44.40609" lon="6.36878">
        <ele>1751.1787109</ele>
        <time>2016-06-07T12:24:19Z</time>
      </trkpt>
      <trkpt lat="44.40612" lon="6.36862">
        <ele>1749.7368164</ele>
        <time>2016-06-07T12:24:21Z</time>
      </trkpt>
      <trkpt lat="44.40614" lon="6.36848">
        <ele>1748.2946777</ele>
        <time>2016-06-07T12:24:23Z</time>
      </trkpt>
      <trkpt lat="44.40621" lon="6.36806">
        <ele>1744.9301758</ele>
        <time>2016-06-07T12:24:29Z</time>
      </trkpt>
      <trkpt lat="44.40654" lon="6.368">
        <ele>1727.5507813</ele>
      </trkpt>
      <trkpt lat="44.40679" lon="6.36831">
        <ele>1726.3476563</ele>
      </trkpt>
      <trkpt lat="44.40692" lon="6.36869">
        <ele>1730.2851563</ele>
      </trkpt>
      <trkpt lat="44.40711" lon="6.36908">
        <ele>1737.8984375</ele>
      </trkpt>
      <trkpt lat="44.4073" lon="6.36938">
        <ele>1747.6289063</ele>
      </trkpt>
      <trkpt lat="44.40761" lon="6.36954">
        <ele>1756.796875</ele>
      </trkpt>
      <trkpt lat="44.40793" lon="6.36931">
        <ele>1755.9609375</ele>
      </trkpt>
      <trkpt lat="44.40824" lon="6.36908">
        <ele>1752.9804688</ele>
      </trkpt>
      <trkpt lat="44.40862" lon="6.36908">
        <ele>1754.9921875</ele>
      </trkpt>
      <trkpt lat="44.40893" lon="6.36892">
        <ele>1751.890625</ele>
      </trkpt>
      <trkpt lat="44.40931" lon="6.36885">
        <ele>1753.6640625</ele>
      </trkpt>
      <trkpt lat="44.40962" lon="6.36869">
        <ele>1754.6523438</ele>
      </trkpt>
      <trkpt lat="44.40987" lon="6.36846">
        <ele>1750.015625</ele>
      </trkpt>
      <trkpt lat="44.41019" lon="6.36831">
        <ele>1745.0234375</ele>
      </trkpt>
      <trkpt lat="44.41044" lon="6.36808">
        <ele>1737.3320313</ele>
      </trkpt>
      <trkpt lat="44.41082" lon="6.36808">
        <ele>1731.5390625</ele>
      </trkpt>
      <trkpt lat="44.41113" lon="6.36823">
        <ele>1729</ele>
      </trkpt>
      <trkpt lat="44.41138" lon="6.36846">
        <ele>1729.640625</ele>
      </trkpt>
      <trkpt lat="44.41176" lon="6.36862">
        <ele>1726.1640625</ele>
      </trkpt>
      <trkpt lat="44.41208" lon="6.36877">
        <ele>1723.7578125</ele>
      </trkpt>
      <trkpt lat="44.41245" lon="6.36877">
        <ele>1719.8945313</ele>
      </trkpt>
      <trkpt lat="44.41283" lon="6.36869">
        <ele>1717.46875</ele>
      </trkpt>
      <trkpt lat="44.41302" lon="6.36831">
        <ele>1709.46875</ele>
      </trkpt>
      <trkpt lat="44.41327" lon="6.36808">
        <ele>1704.7617188</ele>
      </trkpt>
      <trkpt lat="44.41358" lon="6.36793">
        <ele>1702.828125</ele>
      </trkpt>
      <trkpt lat="44.41396" lon="6.36777">
        <ele>1701.6992188</ele>
      </trkpt>
      <trkpt lat="44.41421" lon="6.36754">
        <ele>1699.7734375</ele>
      </trkpt>
      <trkpt lat="44.41459" lon="6.36747">
        <ele>1707.3242188</ele>
      </trkpt>
      <trkpt lat="44.41484" lon="6.36708">
        <ele>1702.5039063</ele>
      </trkpt>
      <trkpt lat="44.41503" lon="6.36685">
        <ele>1699.8984375</ele>
      </trkpt>
      <trkpt lat="44.41541" lon="6.36677">
        <ele>1708.0273438</ele>
      </trkpt>
      <trkpt lat="44.41585" lon="6.36677">
        <ele>1717.6289063</ele>
      </trkpt>
      <trkpt lat="44.41616" lon="6.36662">
        <ele>1715.84375</ele>
      </trkpt>
      <trkpt lat="44.41654" lon="6.36654">
        <ele>1715.6992188</ele>
      </trkpt>
      <trkpt lat="44.41692" lon="6.36647">
        <ele>1713.3867188</ele>
      </trkpt>
      <trkpt lat="44.41729" lon="6.36639">
        <ele>1710.0351563</ele>
      </trkpt>
      <trkpt lat="44.41761" lon="6.36624">
        <ele>1703.9375</ele>
      </trkpt>
      <trkpt lat="44.41799" lon="6.36616">
        <ele>1699.7421875</ele>
      </trkpt>
      <trkpt lat="44.41836" lon="6.36608">
        <ele>1695.046875</ele>
      </trkpt>
      <trkpt lat="44.41868" lon="6.36593">
        <ele>1689.9882813</ele>
      </trkpt>
      <trkpt lat="44.41893" lon="6.3657">
        <ele>1682.7226563</ele>
      </trkpt>
      <trkpt lat="44.41924" lon="6.36555">
        <ele>1676.4726563</ele>
      </trkpt>
      <trkpt lat="44.41956" lon="6.36547">
        <ele>1671.734375</ele>
      </trkpt>
      <trkpt lat="44.41994" lon="6.3657">
        <ele>1669.4023438</ele>
      </trkpt>
      <trkpt lat="44.42025" lon="6.36593">
        <ele>1668.53125</ele>
      </trkpt>
      <trkpt lat="44.42056" lon="6.36616">
        <ele>1668.9804688</ele>
      </trkpt>
      <trkpt lat="44.42094" lon="6.36624">
        <ele>1666.0273438</ele>
      </trkpt>
      <trkpt lat="44.42132" lon="6.36631">
        <ele>1663.609375</ele>
      </trkpt>
      <trkpt lat="44.42163" lon="6.36647">
        <ele>1663.2109375</ele>
      </trkpt>
      <trkpt lat="44.42201" lon="6.36654">
        <ele>1659.4375</ele>
      </trkpt>
      <trkpt lat="44.42233" lon="6.3667">
        <ele>1657.3984375</ele>
      </trkpt>
      <trkpt lat="44.42258" lon="6.36693">
        <ele>1657.9296875</ele>
      </trkpt>
      <trkpt lat="44.42283" lon="6.36724">
        <ele>1657.9492188</ele>
      </trkpt>
      <trkpt lat="44.42308" lon="6.36747">
        <ele>1656.6484375</ele>
      </trkpt>
      <trkpt lat="44.42333" lon="6.36785">
        <ele>1657.171875</ele>
      </trkpt>
      <trkpt lat="44.42358" lon="6.36816">
        <ele>1656.0664063</ele>
      </trkpt>
      <trkpt lat="44.42371" lon="6.36862">
        <ele>1659.7929688</ele>
      </trkpt>
      <trkpt lat="44.4239" lon="6.369">
        <ele>1660.4609375</ele>
      </trkpt>
      <trkpt lat="44.42402" lon="6.36946">
        <ele>1662.546875</ele>
      </trkpt>
      <trkpt lat="44.42427" lon="6.36977">
        <ele>1661.2578125</ele>
      </trkpt>
      <trkpt lat="44.4244" lon="6.37015">
        <ele>1663.140625</ele>
      </trkpt>
      <trkpt lat="44.42459" lon="6.37054">
        <ele>1663.890625</ele>
      </trkpt>
      <trkpt lat="44.42471" lon="6.37092">
        <ele>1664.5351563</ele>
      </trkpt>
      <trkpt lat="44.42478" lon="6.37138">
        <ele>1666.0507813</ele>
      </trkpt>
      <trkpt lat="44.42471" lon="6.37184">
        <ele>1668.6875</ele>
      </trkpt>
      <trkpt lat="44.42465" lon="6.3723">
        <ele>1669.9570313</ele>
      </trkpt>
      <trkpt lat="44.42465" lon="6.37284">
        <ele>1664.6953125</ele>
      </trkpt>
      <trkpt lat="44.42459" lon="6.37338">
        <ele>1659.9257813</ele>
      </trkpt>
      <trkpt lat="44.42453" lon="6.37384">
        <ele>1657.78125</ele>
      </trkpt>
      <trkpt lat="44.42459" lon="6.37414">
        <ele>1657.09375</ele>
      </trkpt>
      <trkpt lat="44.4249" lon="6.3743">
        <ele>1650.9882813</ele>
      </trkpt>
      <trkpt lat="44.42522" lon="6.37445">
        <ele>1646.6875</ele>
      </trkpt>
      <trkpt lat="44.42547" lon="6.37468">
        <ele>1650.3984375</ele>
      </trkpt>
      <trkpt lat="44.42585" lon="6.37476">
        <ele>1644.7695313</ele>
      </trkpt>
      <trkpt lat="44.4261" lon="6.37499">
        <ele>1647.1757813</ele>
      </trkpt>
      <trkpt lat="44.42641" lon="6.37514">
        <ele>1642.0859375</ele>
      </trkpt>
      <trkpt lat="44.42666" lon="6.37537">
        <ele>1640.7382813</ele>
      </trkpt>
      <trkpt lat="44.42698" lon="6.37553">
        <ele>1633.859375</ele>
      </trkpt>
      <trkpt lat="44.42717" lon="6.37576">
        <ele>1633.3476563</ele>
      </trkpt>
      <trkpt lat="44.42748" lon="6.3756">
        <ele>1615.1054688</ele>
      </trkpt>
      <trkpt lat="44.4278" lon="6.37576">
        <ele>1607.4921875</ele>
      </trkpt>
      <trkpt lat="44.42805" lon="6.37599">
        <ele>1604.109375</ele>
      </trkpt>
      <trkpt lat="44.42824" lon="6.37637">
        <ele>1604.46875</ele>
      </trkpt>
      <trkpt lat="44.42849" lon="6.3766">
        <ele>1597.9023438</ele>
      </trkpt>
      <trkpt lat="44.42874" lon="6.37691">
        <ele>1591.5273438</ele>
      </trkpt>
      <trkpt lat="44.42887" lon="6.37729">
        <ele>1589.7382813</ele>
      </trkpt>
      <trkpt lat="44.42899" lon="6.37775">
        <ele>1583.7070313</ele>
      </trkpt>
      <trkpt lat="44.42905" lon="6.37821">
        <ele>1579.3632813</ele>
      </trkpt>
      <trkpt lat="44.42918" lon="6.37867">
        <ele>1572.9023438</ele>
      </trkpt>
      <trkpt lat="44.42924" lon="6.37921">
        <ele>1569.703125</ele>
      </trkpt>
      <trkpt lat="44.42931" lon="6.37975">
        <ele>1565.3125</ele>
      </trkpt>
      <trkpt lat="44.42937" lon="6.38029">
        <ele>1556.9492188</ele>
      </trkpt>
      <trkpt lat="44.42937" lon="6.38082">
        <ele>1546.3320313</ele>
      </trkpt>
      <trkpt lat="44.42924" lon="6.38128">
        <ele>1541.7734375</ele>
      </trkpt>
      <trkpt lat="44.4288" lon="6.38167">
        <ele>1552.7421875</ele>
      </trkpt>
      <trkpt lat="44.42874" lon="6.3822">
        <ele>1552.7851563</ele>
      </trkpt>
      <trkpt lat="44.42868" lon="6.38266">
        <ele>1554.5390625</ele>
      </trkpt>
      <trkpt lat="44.42868" lon="6.3832">
        <ele>1556.5117188</ele>
      </trkpt>
      <trkpt lat="44.42887" lon="6.38351">
        <ele>1551.3710938</ele>
      </trkpt>
      <trkpt lat="44.42912" lon="6.38374">
        <ele>1542.609375</ele>
      </trkpt>
      <trkpt lat="44.42937" lon="6.38382">
        <ele>1532.9492188</ele>
      </trkpt>
      <trkpt lat="44.42943" lon="6.38336">
        <ele>1531.3203125</ele>
      </trkpt>
      <trkpt lat="44.42943" lon="6.38282">
        <ele>1531.7578125</ele>
      </trkpt>
      <trkpt lat="44.42943" lon="6.38228">
        <ele>1530.8828125</ele>
      </trkpt>
      <trkpt lat="44.42962" lon="6.3819">
        <ele>1523.8242188</ele>
      </trkpt>
      <trkpt lat="44.42993" lon="6.38174">
        <ele>1517.265625</ele>
      </trkpt>
      <trkpt lat="44.43025" lon="6.38159">
        <ele>1510.53125</ele>
      </trkpt>
      <trkpt lat="44.43056" lon="6.38144">
        <ele>1505.421875</ele>
      </trkpt>
      <trkpt lat="44.43081" lon="6.38121">
        <ele>1501.3164063</ele>
      </trkpt>
      <trkpt lat="44.43113" lon="6.38105">
        <ele>1495.984375</ele>
      </trkpt>
      <trkpt lat="44.43144" lon="6.38082">
        <ele>1489.4257813</ele>
      </trkpt>
      <trkpt lat="44.43163" lon="6.38052">
        <ele>1484.4335938</ele>
      </trkpt>
      <trkpt lat="44.43163" lon="6.37998">
        <ele>1486.1445313</ele>
      </trkpt>
      <trkpt lat="44.43169" lon="6.37952">
        <ele>1486.4765625</ele>
      </trkpt>
      <trkpt lat="44.43188" lon="6.37913">
        <ele>1482.1445313</ele>
      </trkpt>
      <trkpt lat="44.43213" lon="6.37875">
        <ele>1473.5664063</ele>
      </trkpt>
      <trkpt lat="44.43226" lon="6.37829">
        <ele>1469.6953125</ele>
      </trkpt>
      <trkpt lat="44.43207" lon="6.37783">
        <ele>1478.4960938</ele>
      </trkpt>
      <trkpt lat="44.43188" lon="6.37744">
        <ele>1482.15625</ele>
      </trkpt>
      <trkpt lat="44.43163" lon="6.37714">
        <ele>1485.0507813</ele>
      </trkpt>
      <trkpt lat="44.43144" lon="6.37675">
        <ele>1477.4296875</ele>
      </trkpt>
      <trkpt lat="44.43132" lon="6.37637">
        <ele>1466.3007813</ele>
      </trkpt>
      <trkpt lat="44.43132" lon="6.37583">
        <ele>1446.0585938</ele>
      </trkpt>
      <trkpt lat="44.43113" lon="6.37545">
        <ele>1441.78125</ele>
      </trkpt>
      <trkpt lat="44.43094" lon="6.37507">
        <ele>1440.9882813</ele>
      </trkpt>
      <trkpt lat="44.43081" lon="6.3746">
        <ele>1439.3554688</ele>
      </trkpt>
      <trkpt lat="44.43081" lon="6.37407">
        <ele>1432.9765625</ele>
      </trkpt>
      <trkpt lat="44.43056" lon="6.37376">
        <ele>1438.0273438</ele>
      </trkpt>
      <trkpt lat="44.43044" lon="6.37376">
        <ele>1442.7929688</ele>
      </trkpt>
      <trkpt lat="44.43081" lon="6.37353">
        <ele>1425.0585938</ele>
      </trkpt>
      <trkpt lat="44.43094" lon="6.37391">
        <ele>1425.9609375</ele>
      </trkpt>
      <trkpt lat="44.43119" lon="6.37422">
        <ele>1418.5546875</ele>
      </trkpt>
      <trkpt lat="44.43144" lon="6.37445">
        <ele>1410.8242188</ele>
      </trkpt>
      <trkpt lat="44.43169" lon="6.37476">
        <ele>1406.75</ele>
      </trkpt>
      <trkpt lat="44.43207" lon="6.37483">
        <ele>1401.0898438</ele>
      </trkpt>
      <trkpt lat="44.43245" lon="6.37476">
        <ele>1393.8320313</ele>
      </trkpt>
      <trkpt lat="44.43276" lon="6.37491">
        <ele>1389.640625</ele>
      </trkpt>
      <trkpt lat="44.43308" lon="6.37507">
        <ele>1384.8515625</ele>
      </trkpt>
      <trkpt lat="44.43339" lon="6.37522">
        <ele>1379.2382813</ele>
      </trkpt>
      <trkpt lat="44.43383" lon="6.37522">
        <ele>1368.671875</ele>
      </trkpt>
      <trkpt lat="44.43421" lon="6.37522">
        <ele>1366.0039063</ele>
      </trkpt>
      <trkpt lat="44.43459" lon="6.37514">
        <ele>1365.921875</ele>
      </trkpt>
      <trkpt lat="44.43496" lon="6.37507">
        <ele>1364.9648438</ele>
      </trkpt>
      <trkpt lat="44.43522" lon="6.37483">
        <ele>1358.2265625</ele>
      </trkpt>
      <trkpt lat="44.43553" lon="6.37468">
        <ele>1351.8632813</ele>
      </trkpt>
      <trkpt lat="44.43584" lon="6.37453">
        <ele>1343.640625</ele>
      </trkpt>
      <trkpt lat="44.43622" lon="6.37437">
        <ele>1331.6367188</ele>
      </trkpt>
      <trkpt lat="44.4366" lon="6.3743">
        <ele>1323.8671875</ele>
      </trkpt>
      <trkpt lat="44.43691" lon="6.37407">
        <ele>1312.4882813</ele>
      </trkpt>
      <trkpt lat="44.43723" lon="6.37391">
        <ele>1305.734375</ele>
      </trkpt>
      <trkpt lat="44.43761" lon="6.37384">
        <ele>1302.9335938</ele>
      </trkpt>
      <trkpt lat="44.43792" lon="6.37368">
        <ele>1297.6367188</ele>
      </trkpt>
      <trkpt lat="44.43836" lon="6.37368">
        <ele>1299.4492188</ele>
      </trkpt>
      <trkpt lat="44.43867" lon="6.37368">
        <ele>1300.5820313</ele>
      </trkpt>
      <trkpt lat="44.4383" lon="6.37361">
        <ele>1295.90625</ele>
      </trkpt>
      <trkpt lat="44.43792" lon="6.37353">
        <ele>1291.5546875</ele>
      </trkpt>
      <trkpt lat="44.43761" lon="6.37338">
        <ele>1285.4726563</ele>
      </trkpt>
      <trkpt lat="44.43723" lon="6.3733">
        <ele>1282.7890625</ele>
      </trkpt>
      <trkpt lat="44.43679" lon="6.3733">
        <ele>1284.0585938</ele>
      </trkpt>
      <trkpt lat="44.43647" lon="6.37315">
        <ele>1283.03125</ele>
      </trkpt>
      <trkpt lat="44.4361" lon="6.37292">
        <ele>1283.2460938</ele>
      </trkpt>
      <trkpt lat="44.43578" lon="6.37269">
        <ele>1283.1015625</ele>
      </trkpt>
      <trkpt lat="44.43559" lon="6.3723">
        <ele>1277.21875</ele>
      </trkpt>
      <trkpt lat="44.43547" lon="6.37184">
        <ele>1269.9960938</ele>
      </trkpt>
      <trkpt lat="44.43528" lon="6.37146">
        <ele>1270.3671875</ele>
      </trkpt>
      <trkpt lat="44.43503" lon="6.37115">
        <ele>1274.7109375</ele>
      </trkpt>
      <trkpt lat="44.43484" lon="6.37069">
        <ele>1276.828125</ele>
      </trkpt>
      <trkpt lat="44.43459" lon="6.37038">
        <ele>1281.828125</ele>
      </trkpt>
      <trkpt lat="44.43446" lon="6.36992">
        <ele>1281.3867188</ele>
      </trkpt>
      <trkpt lat="44.43427" lon="6.36954">
        <ele>1282.96875</ele>
      </trkpt>
      <trkpt lat="44.43402" lon="6.36923">
        <ele>1284.6992188</ele>
      </trkpt>
      <trkpt lat="44.43377" lon="6.36885">
        <ele>1285.2890625</ele>
      </trkpt>
      <trkpt lat="44.43377" lon="6.36831">
        <ele>1279.4765625</ele>
      </trkpt>
      <trkpt lat="44.43364" lon="6.36785">
        <ele>1278.7929688</ele>
      </trkpt>
      <trkpt lat="44.43352" lon="6.36739">
        <ele>1279.4804688</ele>
      </trkpt>
      <trkpt lat="44.43327" lon="6.36716">
        <ele>1287.2460938</ele>
      </trkpt>
      <trkpt lat="44.43308" lon="6.36677">
        <ele>1291.7304688</ele>
      </trkpt>
      <trkpt lat="44.43295" lon="6.36631">
        <ele>1293.09375</ele>
      </trkpt>
      <trkpt lat="44.43283" lon="6.36585">
        <ele>1294.4375</ele>
      </trkpt>
      <trkpt lat="44.43276" lon="6.36539">
        <ele>1292.1992188</ele>
      </trkpt>
      <trkpt lat="44.43264" lon="6.36493">
        <ele>1293.6171875</ele>
      </trkpt>
      <trkpt lat="44.43251" lon="6.36439">
        <ele>1293.296875</ele>
      </trkpt>
      <trkpt lat="44.43232" lon="6.36409">
        <ele>1297.0703125</ele>
      </trkpt>
      <trkpt lat="44.43226" lon="6.36355">
        <ele>1294.234375</ele>
      </trkpt>
      <trkpt lat="44.43207" lon="6.36317">
        <ele>1297.5546875</ele>
      </trkpt>
      <trkpt lat="44.43188" lon="6.36278">
        <ele>1301.5546875</ele>
      </trkpt>
      <trkpt lat="44.43169" lon="6.3624">
        <ele>1305.8125</ele>
      </trkpt>
      <trkpt lat="44.43144" lon="6.36202">
        <ele>1312.7421875</ele>
      </trkpt>
      <trkpt lat="44.43113" lon="6.36186">
        <ele>1323.1015625</ele>
      </trkpt>
      <trkpt lat="44.43088" lon="6.36163">
        <ele>1329.9414063</ele>
      </trkpt>
      <trkpt lat="44.43056" lon="6.36148">
        <ele>1338.1015625</ele>
      </trkpt>
      <trkpt lat="44.43031" lon="6.36125">
        <ele>1341.3164063</ele>
      </trkpt>
      <trkpt lat="44.43006" lon="6.36102">
        <ele>1342.3867188</ele>
      </trkpt>
      <trkpt lat="44.42981" lon="6.36079">
        <ele>1341.4140625</ele>
      </trkpt>
      <trkpt lat="44.42956" lon="6.36056">
        <ele>1339.15625</ele>
      </trkpt>
      <trkpt lat="44.42924" lon="6.36033">
        <ele>1337.5742188</ele>
      </trkpt>
      <trkpt lat="44.42899" lon="6.36002">
        <ele>1333.03125</ele>
      </trkpt>
      <trkpt lat="44.42874" lon="6.35979">
        <ele>1332.5546875</ele>
      </trkpt>
      <trkpt lat="44.42842" lon="6.35956">
        <ele>1334.4570313</ele>
      </trkpt>
      <trkpt lat="44.42811" lon="6.35941">
        <ele>1337.4765625</ele>
      </trkpt>
      <trkpt lat="44.42805" lon="6.35941">
        <ele>1338.15625</ele>
      </trkpt>
      <trkpt lat="44.42767" lon="6.35933">
        <ele>1341.4023438</ele>
      </trkpt>
      <trkpt lat="44.42736" lon="6.35917">
        <ele>1342.140625</ele>
      </trkpt>
      <trkpt lat="44.4271" lon="6.35894">
        <ele>1341.5390625</ele>
      </trkpt>
      <trkpt lat="44.42685" lon="6.35871">
        <ele>1340.9179688</ele>
      </trkpt>
      <trkpt lat="44.42648" lon="6.35864">
        <ele>1344.4570313</ele>
      </trkpt>
      <trkpt lat="44.4261" lon="6.35856">
        <ele>1349.125</ele>
      </trkpt>
      <trkpt lat="44.42585" lon="6.35833">
        <ele>1347.5546875</ele>
      </trkpt>
      <trkpt lat="44.42553" lon="6.35818">
        <ele>1349.6484375</ele>
      </trkpt>
      <trkpt lat="44.42522" lon="6.35802">
        <ele>1351.6640625</ele>
      </trkpt>
      <trkpt lat="44.42497" lon="6.35779">
        <ele>1349.7070313</ele>
      </trkpt>
      <trkpt lat="44.42471" lon="6.35749">
        <ele>1345.0078125</ele>
      </trkpt>
      <trkpt lat="44.4244" lon="6.35733">
        <ele>1344.5351563</ele>
      </trkpt>
      <trkpt lat="44.42415" lon="6.3571">
        <ele>1340.03125</ele>
      </trkpt>
      <trkpt lat="44.4239" lon="6.3568">
        <ele>1332.296875</ele>
      </trkpt>
      <trkpt lat="44.42352" lon="6.3568">
        <ele>1333.9609375</ele>
      </trkpt>
      <trkpt lat="44.42314" lon="6.35664">
        <ele>1332.8046875</ele>
      </trkpt>
      <trkpt lat="44.42283" lon="6.35649">
        <ele>1332.53125</ele>
      </trkpt>
      <trkpt lat="44.42245" lon="6.35649">
        <ele>1335.8710938</ele>
      </trkpt>
      <trkpt lat="44.42233" lon="6.3561">
        <ele>1326.796875</ele>
      </trkpt>
      <trkpt lat="44.4222" lon="6.35564">
        <ele>1317.3125</ele>
      </trkpt>
      <trkpt lat="44.42195" lon="6.35541">
        <ele>1316.65625</ele>
      </trkpt>
      <trkpt lat="44.42157" lon="6.35541">
        <ele>1322.7382813</ele>
      </trkpt>
      <trkpt lat="44.42119" lon="6.35534">
        <ele>1328.25</ele>
      </trkpt>
      <trkpt lat="44.42094" lon="6.35503">
        <ele>1326.1445313</ele>
      </trkpt>
      <trkpt lat="44.42063" lon="6.3548">
        <ele>1326.828125</ele>
      </trkpt>
      <trkpt lat="44.42044" lon="6.35442">
        <ele>1322.4453125</ele>
      </trkpt>
      <trkpt lat="44.42031" lon="6.35442">
        <ele>1324.6210938</ele>
      </trkpt>
      <trkpt lat="44.41962" lon="6.35434">
        <ele>1335.0390625</ele>
      </trkpt>
      <trkpt lat="44.41937" lon="6.35395">
        <ele>1332.0585938</ele>
      </trkpt>
      <trkpt lat="44.41912" lon="6.35372">
        <ele>1333.9296875</ele>
      </trkpt>
      <trkpt lat="44.41887" lon="6.35349">
        <ele>1336.4570313</ele>
      </trkpt>
      <trkpt lat="44.41861" lon="6.35319">
        <ele>1337.4921875</ele>
      </trkpt>
      <trkpt lat="44.41836" lon="6.35288">
        <ele>1337.5351563</ele>
      </trkpt>
      <trkpt lat="44.41811" lon="6.3525">
        <ele>1336.2421875</ele>
      </trkpt>
      <trkpt lat="44.41786" lon="6.35211">
        <ele>1335.8125</ele>
      </trkpt>
      <trkpt lat="44.41755" lon="6.35188">
        <ele>1336.1171875</ele>
      </trkpt>
      <trkpt lat="44.41723" lon="6.35165">
        <ele>1335.8789063</ele>
      </trkpt>
      <trkpt lat="44.41685" lon="6.35165">
        <ele>1334.9804688</ele>
      </trkpt>
      <trkpt lat="44.41648" lon="6.35165">
        <ele>1335.7578125</ele>
      </trkpt>
      <trkpt lat="44.4161" lon="6.35165">
        <ele>1336.3007813</ele>
      </trkpt>
      <trkpt lat="44.41585" lon="6.35142">
        <ele>1334.671875</ele>
      </trkpt>
      <trkpt lat="44.4156" lon="6.35119">
        <ele>1332.9960938</ele>
      </trkpt>
      <trkpt lat="44.41541" lon="6.35081">
        <ele>1332</ele>
      </trkpt>
      <trkpt lat="44.41522" lon="6.35065">
        <ele>1332</ele>
      </trkpt>
      <trkpt lat="44.4149" lon="6.35111">
        <ele>1333.8125</ele>
      </trkpt>
      <trkpt lat="44.41459" lon="6.35096">
        <ele>1332.7265625</ele>
      </trkpt>
      <trkpt lat="44.41428" lon="6.35073">
        <ele>1329.9335938</ele>
      </trkpt>
      <trkpt lat="44.41396" lon="6.3505">
        <ele>1327.6445313</ele>
      </trkpt>
      <trkpt lat="44.41377" lon="6.35012">
        <ele>1325.3476563</ele>
      </trkpt>
      <trkpt lat="44.41346" lon="6.34981">
        <ele>1323.484375</ele>
      </trkpt>
      <trkpt lat="44.41321" lon="6.34958">
        <ele>1322.4296875</ele>
      </trkpt>
      <trkpt lat="44.41296" lon="6.34935">
        <ele>1321.1679688</ele>
      </trkpt>
      <trkpt lat="44.41264" lon="6.3492">
        <ele>1322.1367188</ele>
      </trkpt>
      <trkpt lat="44.4122" lon="6.3492">
        <ele>1323.7226563</ele>
      </trkpt>
      <trkpt lat="44.41195" lon="6.34943">
        <ele>1326.2890625</ele>
      </trkpt>
      <trkpt lat="44.41163" lon="6.34966">
        <ele>1329.078125</ele>
      </trkpt>
      <trkpt lat="44.41138" lon="6.34996">
        <ele>1330.796875</ele>
      </trkpt>
      <trkpt lat="44.41107" lon="6.35027">
        <ele>1330.9257813</ele>
      </trkpt>
      <trkpt lat="44.41082" lon="6.3505">
        <ele>1330.6523438</ele>
      </trkpt>
      <trkpt lat="44.41057" lon="6.35073">
        <ele>1331.3164063</ele>
      </trkpt>
      <trkpt lat="44.41025" lon="6.35088">
        <ele>1331.6210938</ele>
      </trkpt>
      <trkpt lat="44.41063" lon="6.35081">
        <ele>1331.7851563</ele>
      </trkpt>
      <trkpt lat="44.41025" lon="6.35073">
        <ele>1330.4375</ele>
      </trkpt>
      <trkpt lat="44.41006" lon="6.35035">
        <ele>1326.171875</ele>
      </trkpt>
      <trkpt lat="44.40994" lon="6.34996">
        <ele>1321.7890625</ele>
      </trkpt>
      <trkpt lat="44.40975" lon="6.34958">
        <ele>1317.1289063</ele>
      </trkpt>
      <trkpt lat="44.40956" lon="6.34927">
        <ele>1314.0078125</ele>
      </trkpt>
      <trkpt lat="44.40943" lon="6.34889">
        <ele>1310.9609375</ele>
      </trkpt>
      <trkpt lat="44.40925" lon="6.3485">
        <ele>1306.7734375</ele>
      </trkpt>
      <trkpt lat="44.40899" lon="6.34812">
        <ele>1302.4765625</ele>
      </trkpt>
      <trkpt lat="44.4088" lon="6.34774">
        <ele>1298.3046875</ele>
      </trkpt>
      <trkpt lat="44.40862" lon="6.34743">
        <ele>1296.5429688</ele>
      </trkpt>
      <trkpt lat="44.40849" lon="6.34697">
        <ele>1290.1367188</ele>
      </trkpt>
      <trkpt lat="44.40855" lon="6.34666">
        <ele>1285.2226563</ele>
      </trkpt>
      <trkpt lat="44.40887" lon="6.34651">
        <ele>1281.2929688</ele>
      </trkpt>
      <trkpt lat="44.40912" lon="6.34628">
        <ele>1277.9648438</ele>
      </trkpt>
      <trkpt lat="44.4095" lon="6.3462">
        <ele>1276.140625</ele>
      </trkpt>
      <trkpt lat="44.40975" lon="6.34589">
        <ele>1273.3515625</ele>
      </trkpt>
      <trkpt lat="44.40975" lon="6.34536">
        <ele>1270.109375</ele>
      </trkpt>
      <trkpt lat="44.40969" lon="6.3449">
        <ele>1268.4921875</ele>
      </trkpt>
      <trkpt lat="44.4095" lon="6.34451">
        <ele>1265.7617188</ele>
      </trkpt>
      <trkpt lat="44.40931" lon="6.34413">
        <ele>1263.6992188</ele>
      </trkpt>
      <trkpt lat="44.40912" lon="6.34375">
        <ele>1261.6367188</ele>
      </trkpt>
      <trkpt lat="44.40887" lon="6.34351">
        <ele>1260.2773438</ele>
      </trkpt>
      <trkpt lat="44.40855" lon="6.34336">
        <ele>1260.6289063</ele>
      </trkpt>
      <trkpt lat="44.40824" lon="6.34305">
        <ele>1260.5976563</ele>
      </trkpt>
      <trkpt lat="44.40818" lon="6.34298">
        <ele>1260.2148438</ele>
      </trkpt>
      <trkpt lat="44.4078" lon="6.34244">
        <ele>1256.6640625</ele>
      </trkpt>
      <trkpt lat="44.40748" lon="6.34213">
        <ele>1253.0117188</ele>
      </trkpt>
      <trkpt lat="44.4073" lon="6.34175">
        <ele>1247.6328125</ele>
      </trkpt>
      <trkpt lat="44.40711" lon="6.34144">
        <ele>1244.4179688</ele>
      </trkpt>
      <trkpt lat="44.40686" lon="6.34114">
        <ele>1240.9023438</ele>
      </trkpt>
      <trkpt lat="44.40673" lon="6.34067">
        <ele>1236.3789063</ele>
      </trkpt>
      <trkpt lat="44.40667" lon="6.34021">
        <ele>1231.7578125</ele>
      </trkpt>
      <trkpt lat="44.40648" lon="6.33975">
        <ele>1228.3125</ele>
      </trkpt>
      <trkpt lat="44.40629" lon="6.33945">
        <ele>1225.828125</ele>
      </trkpt>
      <trkpt lat="44.40616" lon="6.33906">
        <ele>1223.3359375</ele>
      </trkpt>
      <trkpt lat="44.40585" lon="6.33883">
        <ele>1221.9414063</ele>
      </trkpt>
      <trkpt lat="44.40553" lon="6.33868">
        <ele>1221.3945313</ele>
      </trkpt>
      <trkpt lat="44.40522" lon="6.33853">
        <ele>1221.1445313</ele>
      </trkpt>
      <trkpt lat="44.40491" lon="6.33837">
        <ele>1220.140625</ele>
      </trkpt>
      <trkpt lat="44.40459" lon="6.33822">
        <ele>1219.0585938</ele>
      </trkpt>
      <trkpt lat="44.40428" lon="6.33806">
        <ele>1218.1328125</ele>
      </trkpt>
      <trkpt lat="44.4039" lon="6.33799">
        <ele>1218.2929688</ele>
      </trkpt>
      <trkpt lat="44.40365" lon="6.33776">
        <ele>1214.703125</ele>
      </trkpt>
      <trkpt lat="44.40333" lon="6.3376">
        <ele>1212.5429688</ele>
      </trkpt>
      <trkpt lat="44.40308" lon="6.33737">
        <ele>1209.2890625</ele>
      </trkpt>
      <trkpt lat="44.40283" lon="6.33714">
        <ele>1206.8789063</ele>
      </trkpt>
      <trkpt lat="44.40245" lon="6.33714">
        <ele>1209.0117188</ele>
      </trkpt>
      <trkpt lat="44.40208" lon="6.33714">
        <ele>1210.4648438</ele>
      </trkpt>
      <trkpt lat="44.4017" lon="6.33714">
        <ele>1210.4648438</ele>
      </trkpt>
      <trkpt lat="44.40138" lon="6.33707">
        <ele>1208.9492188</ele>
      </trkpt>
      <trkpt lat="44.40088" lon="6.33699">
        <ele>1206.8203125</ele>
      </trkpt>
      <trkpt lat="44.4005" lon="6.33707">
        <ele>1206.0429688</ele>
      </trkpt>
      <trkpt lat="44.40013" lon="6.33707">
        <ele>1204.546875</ele>
      </trkpt>
      <trkpt lat="44.39969" lon="6.33707">
        <ele>1203.4492188</ele>
      </trkpt>
      <trkpt lat="44.39931" lon="6.33722">
        <ele>1204.375</ele>
      </trkpt>
      <trkpt lat="44.39893" lon="6.33722">
        <ele>1201.1992188</ele>
      </trkpt>
      <trkpt lat="44.39855" lon="6.33737">
        <ele>1198.5195313</ele>
      </trkpt>
      <trkpt lat="44.3983" lon="6.3376">
        <ele>1198.2148438</ele>
      </trkpt>
      <trkpt lat="44.39774" lon="6.3376">
        <ele>1190.0585938</ele>
      </trkpt>
      <trkpt lat="44.39736" lon="6.3376">
        <ele>1185.8632813</ele>
      </trkpt>
      <trkpt lat="44.39692" lon="6.3376">
        <ele>1182.6914063</ele>
      </trkpt>
      <trkpt lat="44.39654" lon="6.33753">
        <ele>1179.9960938</ele>
      </trkpt>
      <trkpt lat="44.3961" lon="6.33753">
        <ele>1179.9960938</ele>
      </trkpt>
      <trkpt lat="44.39573" lon="6.33753">
        <ele>1180.0039063</ele>
      </trkpt>
      <trkpt lat="44.39535" lon="6.33768">
        <ele>1182.3085938</ele>
      </trkpt>
      <trkpt lat="44.39497" lon="6.33776">
        <ele>1182.8828125</ele>
      </trkpt>
      <trkpt lat="44.39453" lon="6.33776">
        <ele>1181.515625</ele>
      </trkpt>
      <trkpt lat="44.39415" lon="6.33776">
        <ele>1180.15625</ele>
      </trkpt>
      <trkpt lat="44.39371" lon="6.33776">
        <ele>1177.0546875</ele>
      </trkpt>
      <trkpt lat="44.39334" lon="6.33776">
        <ele>1173.0820313</ele>
      </trkpt>
      <trkpt lat="44.39302" lon="6.3376">
        <ele>1168.4570313</ele>
      </trkpt>
      <trkpt lat="44.39283" lon="6.33722">
        <ele>1164.9023438</ele>
      </trkpt>
      <trkpt lat="44.39258" lon="6.33691">
        <ele>1162.0664063</ele>
      </trkpt>
      <trkpt lat="44.39227" lon="6.33676">
        <ele>1159.9414063</ele>
      </trkpt>
      <trkpt lat="44.39195" lon="6.33661">
        <ele>1157.609375</ele>
      </trkpt>
      <trkpt lat="44.39164" lon="6.33622">
        <ele>1154.0195313</ele>
      </trkpt>
      <trkpt lat="44.39132" lon="6.33599">
        <ele>1148.9335938</ele>
      </trkpt>
      <trkpt lat="44.39101" lon="6.33584">
        <ele>1144.8359375</ele>
      </trkpt>
      <trkpt lat="44.39063" lon="6.33576">
        <ele>1141.921875</ele>
      </trkpt>
      <trkpt lat="44.39032" lon="6.33561">
        <ele>1139.6835938</ele>
      </trkpt>
      <trkpt lat="44.39" lon="6.33545">
        <ele>1137.734375</ele>
      </trkpt>
      <trkpt lat="44.38969" lon="6.33522">
        <ele>1136.4804688</ele>
      </trkpt>
      <trkpt lat="44.38944" lon="6.33499">
        <ele>1134.7890625</ele>
      </trkpt>
      <trkpt lat="44.38919" lon="6.33476">
        <ele>1133.0898438</ele>
      </trkpt>
      <trkpt lat="44.38893" lon="6.33453">
        <ele>1132.3164063</ele>
      </trkpt>
      <trkpt lat="44.38868" lon="6.33423">
        <ele>1132.421875</ele>
      </trkpt>
      <trkpt lat="44.38849" lon="6.33384">
        <ele>1132.21875</ele>
      </trkpt>
      <trkpt lat="44.38824" lon="6.33354">
        <ele>1134.515625</ele>
      </trkpt>
      <trkpt lat="44.38793" lon="6.33338">
        <ele>1137.6289063</ele>
      </trkpt>
      <trkpt lat="44.38755" lon="6.33338">
        <ele>1144.515625</ele>
      </trkpt>
      <trkpt lat="44.38742" lon="6.33338">
        <ele>1146.8085938</ele>
      </trkpt>
      <trkpt lat="44.38724" lon="6.33369">
        <ele>1154.7421875</ele>
      </trkpt>
      <trkpt lat="44.38686" lon="6.33354">
        <ele>1156.9648438</ele>
      </trkpt>
      <trkpt lat="44.38648" lon="6.33346">
        <ele>1156.859375</ele>
      </trkpt>
      <trkpt lat="44.3861" lon="6.33346">
        <ele>1157.0703125</ele>
      </trkpt>
      <trkpt lat="44.38585" lon="6.33315">
        <ele>1151.1328125</ele>
      </trkpt>
      <trkpt lat="44.3856" lon="6.33292">
        <ele>1146.9257813</ele>
      </trkpt>
      <trkpt lat="44.38529" lon="6.33277">
        <ele>1144.4179688</ele>
      </trkpt>
      <trkpt lat="44.38497" lon="6.33261">
        <ele>1141.6875</ele>
      </trkpt>
      <trkpt lat="44.38466" lon="6.33246">
        <ele>1137.6484375</ele>
      </trkpt>
      <trkpt lat="44.38441" lon="6.33223">
        <ele>1131.046875</ele>
      </trkpt>
      <trkpt lat="44.38409" lon="6.33208">
        <ele>1125.7578125</ele>
      </trkpt>
      <trkpt lat="44.38371" lon="6.33208">
        <ele>1124.65625</ele>
      </trkpt>
      <trkpt lat="44.38334" lon="6.33208">
        <ele>1122.6640625</ele>
      </trkpt>
      <trkpt lat="44.3829" lon="6.33208">
        <ele>1119.046875</ele>
      </trkpt>
      <trkpt lat="44.38252" lon="6.33208">
        <ele>1115.6171875</ele>
      </trkpt>
      <trkpt lat="44.38208" lon="6.33208">
        <ele>1111.7734375</ele>
      </trkpt>
      <trkpt lat="44.38177" lon="6.33223">
        <ele>1110.8945313</ele>
      </trkpt>
      <trkpt lat="44.38145" lon="6.33238">
        <ele>1109.359375</ele>
      </trkpt>
      <trkpt lat="44.38107" lon="6.33238">
        <ele>1106.3671875</ele>
      </trkpt>
      <trkpt lat="44.38082" lon="6.33261">
        <ele>1106.9101563</ele>
      </trkpt>
      <trkpt lat="44.38044" lon="6.33277">
        <ele>1105.8476563</ele>
      </trkpt>
      <trkpt lat="44.38" lon="6.33277">
        <ele>1105.0703125</ele>
      </trkpt>
      <trkpt lat="44.37963" lon="6.33292">
        <ele>1104.8164063</ele>
      </trkpt>
      <trkpt lat="44.37925" lon="6.333">
        <ele>1104.2148438</ele>
      </trkpt>
      <trkpt lat="44.37894" lon="6.33315">
        <ele>1104.9648438</ele>
      </trkpt>
      <trkpt lat="44.37862" lon="6.33331">
        <ele>1107.203125</ele>
      </trkpt>
      <trkpt lat="44.37856" lon="6.33331">
        <ele>1107.4296875</ele>
      </trkpt>
      <trkpt lat="44.37806" lon="6.33361">
        <ele>1115.7382813</ele>
      </trkpt>
      <trkpt lat="44.37768" lon="6.33361">
        <ele>1119.9726563</ele>
      </trkpt>
      <trkpt lat="44.37749" lon="6.33392">
        <ele>1124.8007813</ele>
      </trkpt>
      <trkpt lat="44.37717" lon="6.33423">
        <ele>1130.6953125</ele>
      </trkpt>
      <trkpt lat="44.37692" lon="6.33446">
        <ele>1135.828125</ele>
      </trkpt>
      <trkpt lat="44.37667" lon="6.33476">
        <ele>1140.6210938</ele>
      </trkpt>
      <trkpt lat="44.37655" lon="6.33522">
        <ele>1144.0898438</ele>
      </trkpt>
      <trkpt lat="44.37636" lon="6.33561">
        <ele>1148.1914063</ele>
      </trkpt>
      <trkpt lat="44.37617" lon="6.33599">
        <ele>1151.8242188</ele>
      </trkpt>
      <trkpt lat="44.37604" lon="6.33645">
        <ele>1153.7617188</ele>
      </trkpt>
      <trkpt lat="44.37592" lon="6.33684">
        <ele>1156.9570313</ele>
      </trkpt>
      <trkpt lat="44.3756" lon="6.33699">
        <ele>1162.0742188</ele>
      </trkpt>
      <trkpt lat="44.37529" lon="6.33714">
        <ele>1168.3671875</ele>
      </trkpt>
      <trkpt lat="44.37504" lon="6.33722">
        <ele>1173.8710938</ele>
      </trkpt>
      <trkpt lat="44.37453" lon="6.3373">
        <ele>1186.3242188</ele>
      </trkpt>
      <trkpt lat="44.37416" lon="6.3373">
        <ele>1193.9570313</ele>
      </trkpt>
      <trkpt lat="44.37378" lon="6.3373">
        <ele>1199.6015625</ele>
      </trkpt>
      <trkpt lat="44.3734" lon="6.33737">
        <ele>1206.15625</ele>
      </trkpt>
      <trkpt lat="44.37309" lon="6.33753">
        <ele>1212.546875</ele>
      </trkpt>
      <trkpt lat="44.37277" lon="6.33768">
        <ele>1217.28125</ele>
      </trkpt>
      <trkpt lat="44.37246" lon="6.33783">
        <ele>1220.328125</ele>
      </trkpt>
      <trkpt lat="44.37208" lon="6.33791">
        <ele>1221.2539063</ele>
      </trkpt>
      <trkpt lat="44.3717" lon="6.33799">
        <ele>1222.5703125</ele>
      </trkpt>
      <trkpt lat="44.37133" lon="6.33806">
        <ele>1224.4765625</ele>
      </trkpt>
      <trkpt lat="44.37095" lon="6.33806">
        <ele>1224.75</ele>
      </trkpt>
      <trkpt lat="44.37057" lon="6.33799">
        <ele>1225.0507813</ele>
      </trkpt>
      <trkpt lat="44.37026" lon="6.33783">
        <ele>1224.8789063</ele>
      </trkpt>
      <trkpt lat="44.36994" lon="6.33768">
        <ele>1226.2851563</ele>
      </trkpt>
      <trkpt lat="44.36969" lon="6.33737">
        <ele>1224.2617188</ele>
      </trkpt>
      <trkpt lat="44.36938" lon="6.33714">
        <ele>1224.7617188</ele>
      </trkpt>
      <trkpt lat="44.36906" lon="6.33691">
        <ele>1225.2617188</ele>
      </trkpt>
      <trkpt lat="44.36869" lon="6.33684">
        <ele>1226.9414063</ele>
      </trkpt>
      <trkpt lat="44.36825" lon="6.33684">
        <ele>1227.53125</ele>
      </trkpt>
      <trkpt lat="44.36799" lon="6.33707">
        <ele>1229.7460938</ele>
      </trkpt>
      <trkpt lat="44.36787" lon="6.33753">
        <ele>1233.2851563</ele>
      </trkpt>
      <trkpt lat="44.36762" lon="6.33776">
        <ele>1232.9179688</ele>
      </trkpt>
      <trkpt lat="44.3673" lon="6.33791">
        <ele>1230.046875</ele>
      </trkpt>
      <trkpt lat="44.36724" lon="6.33791">
        <ele>1229.28125</ele>
      </trkpt>
      <trkpt lat="44.36724" lon="6.33837">
        <ele>1229.5078125</ele>
      </trkpt>
      <trkpt lat="44.36699" lon="6.33868">
        <ele>1224.2851563</ele>
      </trkpt>
      <trkpt lat="44.36686" lon="6.33914">
        <ele>1221.1210938</ele>
      </trkpt>
      <trkpt lat="44.36667" lon="6.33952">
        <ele>1219.203125</ele>
      </trkpt>
      <trkpt lat="44.36642" lon="6.33983">
        <ele>1218.6210938</ele>
      </trkpt>
      <trkpt lat="44.36623" lon="6.34014">
        <ele>1219.3203125</ele>
      </trkpt>
      <trkpt lat="44.36598" lon="6.34052">
        <ele>1222.4648438</ele>
      </trkpt>
      <trkpt lat="44.36579" lon="6.3409">
        <ele>1226.3359375</ele>
      </trkpt>
      <trkpt lat="44.36554" lon="6.34121">
        <ele>1228.6757813</ele>
      </trkpt>
      <trkpt lat="44.36523" lon="6.34144">
        <ele>1227.7109375</ele>
      </trkpt>
      <trkpt lat="44.36504" lon="6.34175">
        <ele>1228.4257813</ele>
      </trkpt>
      <trkpt lat="44.36485" lon="6.34213">
        <ele>1230.0859375</ele>
      </trkpt>
      <trkpt lat="44.36472" lon="6.34252">
        <ele>1232.875</ele>
      </trkpt>
      <trkpt lat="44.36441" lon="6.34275">
        <ele>1231.1523438</ele>
      </trkpt>
      <trkpt lat="44.36416" lon="6.34313">
        <ele>1232.3945313</ele>
      </trkpt>
      <trkpt lat="44.36391" lon="6.34351">
        <ele>1233.8242188</ele>
      </trkpt>
      <trkpt lat="44.36366" lon="6.34375">
        <ele>1233.4609375</ele>
      </trkpt>
      <trkpt lat="44.36334" lon="6.3439">
        <ele>1231.1757813</ele>
      </trkpt>
      <trkpt lat="44.36303" lon="6.34405">
        <ele>1229.2226563</ele>
      </trkpt>
      <trkpt lat="44.36284" lon="6.34421">
        <ele>1229.3007813</ele>
      </trkpt>
      <trkpt lat="44.36273" lon="6.34448">
        <ele>1232.5820313</ele>
      </trkpt>
      <trkpt lat="44.36265" lon="6.34461">
        <ele>1233.7578125</ele>
      </trkpt>
      <trkpt lat="44.36251" lon="6.34471">
        <ele>1234.2109375</ele>
      </trkpt>
      <trkpt lat="44.36235" lon="6.34474">
        <ele>1233.5195313</ele>
      </trkpt>
      <trkpt lat="44.36224" lon="6.34484">
        <ele>1234.3789063</ele>
      </trkpt>
      <trkpt lat="44.36214" lon="6.34494">
        <ele>1235.515625</ele>
      </trkpt>
      <trkpt lat="44.362" lon="6.34501">
        <ele>1235.7265625</ele>
      </trkpt>
      <trkpt lat="44.36187" lon="6.3451">
        <ele>1236.5351563</ele>
      </trkpt>
      <trkpt lat="44.36173" lon="6.34517">
        <ele>1236.75</ele>
      </trkpt>
      <trkpt lat="44.3616" lon="6.34527">
        <ele>1237.5546875</ele>
      </trkpt>
      <trkpt lat="44.36146" lon="6.34537">
        <ele>1238.3632813</ele>
      </trkpt>
      <trkpt lat="44.36133" lon="6.34543">
        <ele>1238.578125</ele>
      </trkpt>
      <trkpt lat="44.36117" lon="6.3455">
        <ele>1238.4570313</ele>
      </trkpt>
      <trkpt lat="44.36106" lon="6.3456">
        <ele>1239.5976563</ele>
      </trkpt>
      <trkpt lat="44.36092" lon="6.34566">
        <ele>1239.0742188</ele>
      </trkpt>
      <trkpt lat="44.36079" lon="6.34573">
        <ele>1238.3203125</ele>
      </trkpt>
      <trkpt lat="44.36068" lon="6.34583">
        <ele>1238.3007813</ele>
      </trkpt>
      <trkpt lat="44.3606" lon="6.34599">
        <ele>1239.3125</ele>
      </trkpt>
      <trkpt lat="44.36049" lon="6.34609">
        <ele>1238.7929688</ele>
      </trkpt>
      <trkpt lat="44.36039" lon="6.34619">
        <ele>1237.8984375</ele>
      </trkpt>
      <trkpt lat="44.3603" lon="6.34636">
        <ele>1238.1015625</ele>
      </trkpt>
      <trkpt lat="44.3602" lon="6.34652">
        <ele>1237.2382813</ele>
      </trkpt>
      <trkpt lat="44.36014" lon="6.34672">
        <ele>1237.9335938</ele>
      </trkpt>
      <trkpt lat="44.36009" lon="6.34691">
        <ele>1238.2851563</ele>
      </trkpt>
      <trkpt lat="44.36006" lon="6.34711">
        <ele>1239.7226563</ele>
      </trkpt>
      <trkpt lat="44.36006" lon="6.34734">
        <ele>1242.2109375</ele>
      </trkpt>
      <trkpt lat="44.36001" lon="6.34754">
        <ele>1243.2421875</ele>
      </trkpt>
      <trkpt lat="44.35985" lon="6.34757">
        <ele>1240.2695313</ele>
      </trkpt>
      <trkpt lat="44.35977" lon="6.3477">
        <ele>1240.7304688</ele>
      </trkpt>
      <trkpt lat="44.3596" lon="6.3479">
        <ele>1241.2148438</ele>
      </trkpt>
      <trkpt lat="44.3595" lon="6.34807">
        <ele>1242.2382813</ele>
      </trkpt>
      <trkpt lat="44.35942" lon="6.34823">
        <ele>1243.7421875</ele>
      </trkpt>
      <trkpt lat="44.35933" lon="6.34839">
        <ele>1245.0234375</ele>
      </trkpt>
      <trkpt lat="44.35928" lon="6.34856">
        <ele>1246.4257813</ele>
      </trkpt>
      <trkpt lat="44.35917" lon="6.34869">
        <ele>1246.5234375</ele>
      </trkpt>
      <trkpt lat="44.35904" lon="6.34876">
        <ele>1244.9765625</ele>
      </trkpt>
      <trkpt lat="44.3589" lon="6.34882">
        <ele>1243.5</ele>
      </trkpt>
      <trkpt lat="44.3588" lon="6.34892">
        <ele>1242.9804688</ele>
      </trkpt>
      <trkpt lat="44.35874" lon="6.34909">
        <ele>1244.3789063</ele>
      </trkpt>
      <trkpt lat="44.35866" lon="6.34925">
        <ele>1245.4023438</ele>
      </trkpt>
      <trkpt lat="44.35861" lon="6.34945">
        <ele>1247.4335938</ele>
      </trkpt>
      <trkpt lat="44.3585" lon="6.34955">
        <ele>1246.6445313</ele>
      </trkpt>
      <trkpt lat="44.35844" lon="6.34974">
        <ele>1248.5195313</ele>
      </trkpt>
      <trkpt lat="44.35836" lon="6.34988">
        <ele>1248.9609375</ele>
      </trkpt>
      <trkpt lat="44.35826" lon="6.34997">
        <ele>1248.4414063</ele>
      </trkpt>
      <trkpt lat="44.35815" lon="6.35011">
        <ele>1248.3984375</ele>
      </trkpt>
      <trkpt lat="44.35807" lon="6.35024">
        <ele>1248.8359375</ele>
      </trkpt>
      <trkpt lat="44.35796" lon="6.35034">
        <ele>1248.4960938</ele>
      </trkpt>
      <trkpt lat="44.35783" lon="6.3505">
        <ele>1249.1328125</ele>
      </trkpt>
      <trkpt lat="44.35774" lon="6.35066">
        <ele>1249.8515625</ele>
      </trkpt>
      <trkpt lat="44.35769" lon="6.35086">
        <ele>1251.03125</ele>
      </trkpt>
      <trkpt lat="44.35756" lon="6.35096">
        <ele>1250.15625</ele>
      </trkpt>
      <trkpt lat="44.35747" lon="6.35109">
        <ele>1250.4140625</ele>
      </trkpt>
      <trkpt lat="44.35739" lon="6.35129">
        <ele>1251.3828125</ele>
      </trkpt>
      <trkpt lat="44.35737" lon="6.35149">
        <ele>1253.359375</ele>
      </trkpt>
      <trkpt lat="44.35726" lon="6.35162">
        <ele>1253.3203125</ele>
      </trkpt>
      <trkpt lat="44.35718" lon="6.35178">
        <ele>1254.0507813</ele>
      </trkpt>
      <trkpt lat="44.35699" lon="6.35211">
        <ele>1255.734375</ele>
      </trkpt>
      <trkpt lat="44.35686" lon="6.35218">
        <ele>1255.0429688</ele>
      </trkpt>
      <trkpt lat="44.35675" lon="6.35234">
        <ele>1256.2695313</ele>
      </trkpt>
      <trkpt lat="44.35669" lon="6.35251">
        <ele>1257.6601563</ele>
      </trkpt>
      <trkpt lat="44.35664" lon="6.35267">
        <ele>1259.0507813</ele>
      </trkpt>
      <trkpt lat="44.35653" lon="6.35284">
        <ele>1260.2421875</ele>
      </trkpt>
      <trkpt lat="44.35642" lon="6.35303">
        <ele>1261.9882813</ele>
      </trkpt>
      <trkpt lat="44.35629" lon="6.3531">
        <ele>1262.1210938</ele>
      </trkpt>
      <trkpt lat="44.35621" lon="6.35323">
        <ele>1262.7773438</ele>
      </trkpt>
      <trkpt lat="44.35607" lon="6.3533">
        <ele>1262.765625</ele>
      </trkpt>
      <trkpt lat="44.35597" lon="6.3534">
        <ele>1262.890625</ele>
      </trkpt>
      <trkpt lat="44.35586" lon="6.35349">
        <ele>1262.578125</ele>
      </trkpt>
      <trkpt lat="44.35572" lon="6.35356">
        <ele>1261.8164063</ele>
      </trkpt>
      <trkpt lat="44.35562" lon="6.35369">
        <ele>1261.015625</ele>
      </trkpt>
      <trkpt lat="44.35553" lon="6.35382">
        <ele>1260.4296875</ele>
      </trkpt>
      <trkpt lat="44.35543" lon="6.35392">
        <ele>1259.5976563</ele>
      </trkpt>
      <trkpt lat="44.35532" lon="6.35402">
        <ele>1258.4648438</ele>
      </trkpt>
      <trkpt lat="44.35518" lon="6.35412">
        <ele>1257.1054688</ele>
      </trkpt>
      <trkpt lat="44.35516" lon="6.35412">
        <ele>1256.8359375</ele>
      </trkpt>
      <trkpt lat="44.35508" lon="6.35402">
        <ele>1256.5390625</ele>
      </trkpt>
      <trkpt lat="44.35491" lon="6.35399">
        <ele>1255.3632813</ele>
      </trkpt>
      <trkpt lat="44.35473" lon="6.35399">
        <ele>1253.3242188</ele>
      </trkpt>
      <trkpt lat="44.35459" lon="6.35392">
        <ele>1252.515625</ele>
      </trkpt>
      <trkpt lat="44.35446" lon="6.35386">
        <ele>1252.2070313</ele>
      </trkpt>
      <trkpt lat="44.35435" lon="6.35372">
        <ele>1252.8359375</ele>
      </trkpt>
      <trkpt lat="44.35424" lon="6.35359">
        <ele>1253.6875</ele>
      </trkpt>
      <trkpt lat="44.35408" lon="6.35356">
        <ele>1253.1640625</ele>
      </trkpt>
      <trkpt lat="44.35392" lon="6.35356">
        <ele>1251.5625</ele>
      </trkpt>
      <trkpt lat="44.35384" lon="6.35369">
        <ele>1248.3945313</ele>
      </trkpt>
      <trkpt lat="44.35373" lon="6.35386">
        <ele>1244.9101563</ele>
      </trkpt>
      <trkpt lat="44.35367" lon="6.35405">
        <ele>1241.1757813</ele>
      </trkpt>
      <trkpt lat="44.35351" lon="6.35409">
        <ele>1238.6679688</ele>
      </trkpt>
      <trkpt lat="44.35335" lon="6.35412">
        <ele>1237.3671875</ele>
      </trkpt>
      <trkpt lat="44.35319" lon="6.35412">
        <ele>1236.5273438</ele>
      </trkpt>
      <trkpt lat="44.35303" lon="6.35415">
        <ele>1234.9257813</ele>
      </trkpt>
      <trkpt lat="44.35292" lon="6.35425">
        <ele>1233.1875</ele>
      </trkpt>
      <trkpt lat="44.35281" lon="6.35438">
        <ele>1231.3085938</ele>
      </trkpt>
      <trkpt lat="44.35273" lon="6.35451">
        <ele>1229.078125</ele>
      </trkpt>
      <trkpt lat="44.35265" lon="6.35468">
        <ele>1226.1289063</ele>
      </trkpt>
      <trkpt lat="44.35257" lon="6.35481">
        <ele>1223.859375</ele>
      </trkpt>
      <trkpt lat="44.35246" lon="6.35491">
        <ele>1222.0351563</ele>
      </trkpt>
      <trkpt lat="44.3523" lon="6.35494">
        <ele>1221.9023438</ele>
      </trkpt>
      <trkpt lat="44.35217" lon="6.35501">
        <ele>1221.1171875</ele>
      </trkpt>
      <trkpt lat="44.352" lon="6.35504">
        <ele>1219.9882813</ele>
      </trkpt>
      <trkpt lat="44.35211" lon="6.35514">
        <ele>1218.2421875</ele>
      </trkpt>
      <trkpt lat="44.35222" lon="6.35524">
        <ele>1216.1679688</ele>
      </trkpt>
      <trkpt lat="44.35233" lon="6.35537">
        <ele>1213.7382813</ele>
      </trkpt>
      <trkpt lat="44.35241" lon="6.35553">
        <ele>1211.46875</ele>
      </trkpt>
      <trkpt lat="44.35252" lon="6.35563">
        <ele>1210.8867188</ele>
      </trkpt>
      <trkpt lat="44.35265" lon="6.3557">
        <ele>1211.2148438</ele>
      </trkpt>
      <trkpt lat="44.35273" lon="6.35583">
        <ele>1210.6835938</ele>
      </trkpt>
      <trkpt lat="44.35273" lon="6.35606">
        <ele>1209.8085938</ele>
      </trkpt>
      <trkpt lat="44.3527" lon="6.35629">
        <ele>1208.5234375</ele>
      </trkpt>
      <trkpt lat="44.3526" lon="6.35639">
        <ele>1206.25</ele>
      </trkpt>
      <trkpt lat="44.35249" lon="6.35652">
        <ele>1204.2304688</ele>
      </trkpt>
      <trkpt lat="44.35241" lon="6.35669">
        <ele>1202.828125</ele>
      </trkpt>
      <trkpt lat="44.35235" lon="6.35685">
        <ele>1202.5</ele>
      </trkpt>
      <trkpt lat="44.35235" lon="6.35688">
        <ele>1202.5898438</ele>
      </trkpt>
    </trkseg>
  </trk>
</gpx>